<?xml version="1.0" encoding="UTF-8" standalone="no" ?>
<gpx xmlns="http://www.topografix.com/GPX/1/1" xmlns:xsi="http://www.w3.org/2001/XMLSchema-instance" xsi:schemaLocation="http://www.topografix.com/GPX/1/1 http://www.topografix.com/GPX/1/1/gpx.xsd" version="1.1" creator="VisuGPX - https://www.visugpx.com">
  <metadata>
    <name>83-M-les Arcs</name>
    <desc><![CDATA[83-M-les Arcs : les Apiès]]></desc>
  </metadata>
  <trk>
    <name><![CDATA[2013-03-27-les arcs]]></name>
    <trkseg>
      <trkpt lat="43.43625" lon="6.50815">
        <ele>57.535331</ele>
        <time>2013-03-27T13:06:42Z</time>
      </trkpt>
      <trkpt lat="43.43631" lon="6.50806">
        <ele>60.95314</ele>
        <time>2013-03-27T13:06:50Z</time>
      </trkpt>
      <trkpt lat="43.43636" lon="6.50797">
        <ele>60.702651</ele>
        <time>2013-03-27T13:06:58Z</time>
      </trkpt>
      <trkpt lat="43.43638" lon="6.50786">
        <ele>61.352401</ele>
        <time>2013-03-27T13:07:05Z</time>
      </trkpt>
      <trkpt lat="43.4364" lon="6.50775">
        <ele>63.203414</ele>
        <time>2013-03-27T13:07:13Z</time>
      </trkpt>
      <trkpt lat="43.43638" lon="6.50763">
        <ele>63.614257</ele>
        <time>2013-03-27T13:07:21Z</time>
      </trkpt>
      <trkpt lat="43.43638" lon="6.50762">
        <ele>63.673133</ele>
        <time>2013-03-27T13:07:22Z</time>
      </trkpt>
      <trkpt lat="43.4363" lon="6.50745">
        <ele>65.9</ele>
        <time>2013-03-27T13:07:37Z</time>
      </trkpt>
      <trkpt lat="43.43626" lon="6.50735">
        <ele>65.6</ele>
        <time>2013-03-27T13:07:44Z</time>
      </trkpt>
      <trkpt lat="43.43623" lon="6.50725">
        <ele>67.5</ele>
        <time>2013-03-27T13:07:51Z</time>
      </trkpt>
      <trkpt lat="43.4362" lon="6.50714">
        <ele>67.9</ele>
        <time>2013-03-27T13:07:58Z</time>
      </trkpt>
      <trkpt lat="43.4362" lon="6.50701">
        <ele>68.5</ele>
        <time>2013-03-27T13:08:06Z</time>
      </trkpt>
      <trkpt lat="43.43625" lon="6.50692">
        <ele>69.4</ele>
        <time>2013-03-27T13:08:14Z</time>
      </trkpt>
      <trkpt lat="43.43633" lon="6.50687">
        <ele>70.5</ele>
        <time>2013-03-27T13:08:22Z</time>
      </trkpt>
      <trkpt lat="43.43634" lon="6.50686">
        <ele>70.5</ele>
        <time>2013-03-27T13:08:23Z</time>
      </trkpt>
      <trkpt lat="43.43643" lon="6.5067">
        <ele>71.2</ele>
        <time>2013-03-27T13:08:36Z</time>
      </trkpt>
      <trkpt lat="43.43646" lon="6.50659">
        <ele>72.3</ele>
        <time>2013-03-27T13:08:43Z</time>
      </trkpt>
      <trkpt lat="43.43649" lon="6.50648">
        <ele>73</ele>
        <time>2013-03-27T13:08:51Z</time>
      </trkpt>
      <trkpt lat="43.4365" lon="6.50636">
        <ele>73.4</ele>
        <time>2013-03-27T13:09:00Z</time>
      </trkpt>
      <trkpt lat="43.43652" lon="6.50625">
        <ele>74.4</ele>
        <time>2013-03-27T13:09:07Z</time>
      </trkpt>
      <trkpt lat="43.43654" lon="6.50614">
        <ele>74.3</ele>
        <time>2013-03-27T13:09:14Z</time>
      </trkpt>
      <trkpt lat="43.43655" lon="6.50603">
        <ele>75.7</ele>
        <time>2013-03-27T13:09:21Z</time>
      </trkpt>
      <trkpt lat="43.43655" lon="6.50592">
        <ele>75.3</ele>
        <time>2013-03-27T13:09:27Z</time>
      </trkpt>
      <trkpt lat="43.43655" lon="6.50591">
        <ele>76.5</ele>
        <time>2013-03-27T13:09:28Z</time>
      </trkpt>
      <trkpt lat="43.43656" lon="6.50569">
        <ele>78</ele>
        <time>2013-03-27T13:09:42Z</time>
      </trkpt>
      <trkpt lat="43.43657" lon="6.50557">
        <ele>77.5</ele>
        <time>2013-03-27T13:09:51Z</time>
      </trkpt>
      <trkpt lat="43.43659" lon="6.50545">
        <ele>78.9</ele>
        <time>2013-03-27T13:09:59Z</time>
      </trkpt>
      <trkpt lat="43.4366" lon="6.50534">
        <ele>78.8</ele>
        <time>2013-03-27T13:10:08Z</time>
      </trkpt>
      <trkpt lat="43.43659" lon="6.50523">
        <ele>80.7</ele>
        <time>2013-03-27T13:10:15Z</time>
      </trkpt>
      <trkpt lat="43.43657" lon="6.50511">
        <ele>81.4</ele>
        <time>2013-03-27T13:10:22Z</time>
      </trkpt>
      <trkpt lat="43.43655" lon="6.505">
        <ele>81.4</ele>
        <time>2013-03-27T13:10:29Z</time>
      </trkpt>
      <trkpt lat="43.43655" lon="6.50499">
        <ele>81.1</ele>
        <time>2013-03-27T13:10:30Z</time>
      </trkpt>
      <trkpt lat="43.43651" lon="6.50478">
        <ele>82.2</ele>
        <time>2013-03-27T13:10:43Z</time>
      </trkpt>
      <trkpt lat="43.43647" lon="6.50467">
        <ele>82.7</ele>
        <time>2013-03-27T13:10:50Z</time>
      </trkpt>
      <trkpt lat="43.43642" lon="6.50458">
        <ele>81.8</ele>
        <time>2013-03-27T13:10:57Z</time>
      </trkpt>
      <trkpt lat="43.43636" lon="6.5045">
        <ele>83.1</ele>
        <time>2013-03-27T13:11:04Z</time>
      </trkpt>
      <trkpt lat="43.43633" lon="6.50438">
        <ele>84.7</ele>
        <time>2013-03-27T13:11:11Z</time>
      </trkpt>
      <trkpt lat="43.43633" lon="6.50427">
        <ele>84.5</ele>
        <time>2013-03-27T13:11:17Z</time>
      </trkpt>
      <trkpt lat="43.4363" lon="6.50416">
        <ele>85</ele>
        <time>2013-03-27T13:11:24Z</time>
      </trkpt>
      <trkpt lat="43.43627" lon="6.50407">
        <ele>86.2</ele>
        <time>2013-03-27T13:11:31Z</time>
      </trkpt>
      <trkpt lat="43.43626" lon="6.50405">
        <ele>86.1</ele>
        <time>2013-03-27T13:11:32Z</time>
      </trkpt>
      <trkpt lat="43.43619" lon="6.50385">
        <ele>88.7</ele>
        <time>2013-03-27T13:11:45Z</time>
      </trkpt>
      <trkpt lat="43.43619" lon="6.50373">
        <ele>88.9</ele>
        <time>2013-03-27T13:11:53Z</time>
      </trkpt>
      <trkpt lat="43.43622" lon="6.50363">
        <ele>88.2</ele>
        <time>2013-03-27T13:12:00Z</time>
      </trkpt>
      <trkpt lat="43.43622" lon="6.50351">
        <ele>89.1</ele>
        <time>2013-03-27T13:12:08Z</time>
      </trkpt>
      <trkpt lat="43.43619" lon="6.5034">
        <ele>90.5</ele>
        <time>2013-03-27T13:12:16Z</time>
      </trkpt>
      <trkpt lat="43.43617" lon="6.50329">
        <ele>91.7</ele>
        <time>2013-03-27T13:12:24Z</time>
      </trkpt>
      <trkpt lat="43.43615" lon="6.50318">
        <ele>91.6</ele>
        <time>2013-03-27T13:12:33Z</time>
      </trkpt>
      <trkpt lat="43.43615" lon="6.50317">
        <ele>92.3</ele>
        <time>2013-03-27T13:12:34Z</time>
      </trkpt>
      <trkpt lat="43.43612" lon="6.50295">
        <ele>92.5</ele>
        <time>2013-03-27T13:12:49Z</time>
      </trkpt>
      <trkpt lat="43.43607" lon="6.50285">
        <ele>89.9</ele>
        <time>2013-03-27T13:12:57Z</time>
      </trkpt>
      <trkpt lat="43.43602" lon="6.50277">
        <ele>95.2</ele>
        <time>2013-03-27T13:13:04Z</time>
      </trkpt>
      <trkpt lat="43.43595" lon="6.5027">
        <ele>96.6</ele>
        <time>2013-03-27T13:13:10Z</time>
      </trkpt>
      <trkpt lat="43.43588" lon="6.50263">
        <ele>95.8</ele>
        <time>2013-03-27T13:13:17Z</time>
      </trkpt>
      <trkpt lat="43.43582" lon="6.50254">
        <ele>99.4</ele>
        <time>2013-03-27T13:13:24Z</time>
      </trkpt>
      <trkpt lat="43.43577" lon="6.50245">
        <ele>98.5</ele>
        <time>2013-03-27T13:13:31Z</time>
      </trkpt>
      <trkpt lat="43.43574" lon="6.50234">
        <ele>99.7</ele>
        <time>2013-03-27T13:13:39Z</time>
      </trkpt>
      <trkpt lat="43.43574" lon="6.50232">
        <ele>99.5</ele>
        <time>2013-03-27T13:13:40Z</time>
      </trkpt>
      <trkpt lat="43.43574" lon="6.5021">
        <ele>97.8</ele>
        <time>2013-03-27T13:13:55Z</time>
      </trkpt>
      <trkpt lat="43.43574" lon="6.50199">
        <ele>99.9</ele>
        <time>2013-03-27T13:14:03Z</time>
      </trkpt>
      <trkpt lat="43.43572" lon="6.50188">
        <ele>101.2</ele>
        <time>2013-03-27T13:14:10Z</time>
      </trkpt>
      <trkpt lat="43.43571" lon="6.50177">
        <ele>101.3</ele>
        <time>2013-03-27T13:14:17Z</time>
      </trkpt>
      <trkpt lat="43.43568" lon="6.50165">
        <ele>101.7</ele>
        <time>2013-03-27T13:14:24Z</time>
      </trkpt>
      <trkpt lat="43.43565" lon="6.50155">
        <ele>101.9</ele>
        <time>2013-03-27T13:14:31Z</time>
      </trkpt>
      <trkpt lat="43.43561" lon="6.50143">
        <ele>102.4</ele>
        <time>2013-03-27T13:14:38Z</time>
      </trkpt>
      <trkpt lat="43.43556" lon="6.50134">
        <ele>104.4</ele>
        <time>2013-03-27T13:14:45Z</time>
      </trkpt>
      <trkpt lat="43.43555" lon="6.50133">
        <ele>103.9</ele>
        <time>2013-03-27T13:14:46Z</time>
      </trkpt>
      <trkpt lat="43.43543" lon="6.50118">
        <ele>105.6</ele>
        <time>2013-03-27T13:15:00Z</time>
      </trkpt>
      <trkpt lat="43.43537" lon="6.5011">
        <ele>105.1</ele>
        <time>2013-03-27T13:15:07Z</time>
      </trkpt>
      <trkpt lat="43.43531" lon="6.50101">
        <ele>106.6</ele>
        <time>2013-03-27T13:15:14Z</time>
      </trkpt>
      <trkpt lat="43.43528" lon="6.5009">
        <ele>106.7</ele>
        <time>2013-03-27T13:15:21Z</time>
      </trkpt>
      <trkpt lat="43.43527" lon="6.50079">
        <ele>108.6</ele>
        <time>2013-03-27T13:15:28Z</time>
      </trkpt>
      <trkpt lat="43.43526" lon="6.50068">
        <ele>109</ele>
        <time>2013-03-27T13:15:35Z</time>
      </trkpt>
      <trkpt lat="43.43523" lon="6.50056">
        <ele>107.7</ele>
        <time>2013-03-27T13:15:42Z</time>
      </trkpt>
      <trkpt lat="43.43519" lon="6.50046">
        <ele>108.1</ele>
        <time>2013-03-27T13:15:49Z</time>
      </trkpt>
      <trkpt lat="43.43518" lon="6.50045">
        <ele>108.5</ele>
        <time>2013-03-27T13:15:50Z</time>
      </trkpt>
      <trkpt lat="43.43505" lon="6.50035">
        <ele>110.4</ele>
        <time>2013-03-27T13:16:03Z</time>
      </trkpt>
      <trkpt lat="43.43497" lon="6.50029">
        <ele>109.7</ele>
        <time>2013-03-27T13:16:11Z</time>
      </trkpt>
      <trkpt lat="43.43492" lon="6.5002">
        <ele>111.8</ele>
        <time>2013-03-27T13:16:18Z</time>
      </trkpt>
      <trkpt lat="43.43488" lon="6.50011">
        <ele>111.9</ele>
        <time>2013-03-27T13:16:25Z</time>
      </trkpt>
      <trkpt lat="43.43483" lon="6.50001">
        <ele>113.8</ele>
        <time>2013-03-27T13:16:32Z</time>
      </trkpt>
      <trkpt lat="43.43477" lon="6.49994">
        <ele>113.1</ele>
        <time>2013-03-27T13:16:39Z</time>
      </trkpt>
      <trkpt lat="43.43469" lon="6.49988">
        <ele>114.5</ele>
        <time>2013-03-27T13:16:47Z</time>
      </trkpt>
      <trkpt lat="43.43461" lon="6.49984">
        <ele>114.8</ele>
        <time>2013-03-27T13:16:54Z</time>
      </trkpt>
      <trkpt lat="43.4346" lon="6.49983">
        <ele>115.1</ele>
        <time>2013-03-27T13:16:55Z</time>
      </trkpt>
      <trkpt lat="43.43447" lon="6.4997">
        <ele>115.9</ele>
        <time>2013-03-27T13:17:09Z</time>
      </trkpt>
      <trkpt lat="43.43439" lon="6.49964">
        <ele>116.2</ele>
        <time>2013-03-27T13:17:16Z</time>
      </trkpt>
      <trkpt lat="43.43431" lon="6.4996">
        <ele>117</ele>
        <time>2013-03-27T13:17:24Z</time>
      </trkpt>
      <trkpt lat="43.43423" lon="6.49959">
        <ele>117.4</ele>
        <time>2013-03-27T13:17:32Z</time>
      </trkpt>
      <trkpt lat="43.43415" lon="6.4996">
        <ele>117.6</ele>
        <time>2013-03-27T13:17:39Z</time>
      </trkpt>
      <trkpt lat="43.43407" lon="6.49959">
        <ele>118</ele>
        <time>2013-03-27T13:17:45Z</time>
      </trkpt>
      <trkpt lat="43.43398" lon="6.49956">
        <ele>117</ele>
        <time>2013-03-27T13:17:52Z</time>
      </trkpt>
      <trkpt lat="43.4339" lon="6.49953">
        <ele>116.7</ele>
        <time>2013-03-27T13:17:59Z</time>
      </trkpt>
      <trkpt lat="43.43389" lon="6.49953">
        <ele>117.3</ele>
        <time>2013-03-27T13:18:00Z</time>
      </trkpt>
      <trkpt lat="43.43373" lon="6.49951">
        <ele>118.3</ele>
        <time>2013-03-27T13:18:13Z</time>
      </trkpt>
      <trkpt lat="43.43365" lon="6.49951">
        <ele>119.7</ele>
        <time>2013-03-27T13:18:20Z</time>
      </trkpt>
      <trkpt lat="43.43357" lon="6.49952">
        <ele>120</ele>
        <time>2013-03-27T13:18:27Z</time>
      </trkpt>
      <trkpt lat="43.43349" lon="6.49952">
        <ele>120.7</ele>
        <time>2013-03-27T13:18:34Z</time>
      </trkpt>
      <trkpt lat="43.4334" lon="6.49952">
        <ele>122.1</ele>
        <time>2013-03-27T13:18:41Z</time>
      </trkpt>
      <trkpt lat="43.43332" lon="6.49954">
        <ele>122.9</ele>
        <time>2013-03-27T13:18:47Z</time>
      </trkpt>
      <trkpt lat="43.43324" lon="6.49955">
        <ele>122.6</ele>
        <time>2013-03-27T13:18:53Z</time>
      </trkpt>
      <trkpt lat="43.43316" lon="6.49957">
        <ele>123.9</ele>
        <time>2013-03-27T13:18:59Z</time>
      </trkpt>
      <trkpt lat="43.43307" lon="6.49959">
        <ele>123</ele>
        <time>2013-03-27T13:19:06Z</time>
      </trkpt>
      <trkpt lat="43.43306" lon="6.49959">
        <ele>122.8</ele>
        <time>2013-03-27T13:19:07Z</time>
      </trkpt>
      <trkpt lat="43.43291" lon="6.49958">
        <ele>125</ele>
        <time>2013-03-27T13:19:20Z</time>
      </trkpt>
      <trkpt lat="43.43282" lon="6.49956">
        <ele>125.1</ele>
        <time>2013-03-27T13:19:27Z</time>
      </trkpt>
      <trkpt lat="43.43274" lon="6.49954">
        <ele>125.1</ele>
        <time>2013-03-27T13:19:33Z</time>
      </trkpt>
      <trkpt lat="43.43267" lon="6.49948">
        <ele>125.7</ele>
        <time>2013-03-27T13:19:40Z</time>
      </trkpt>
      <trkpt lat="43.43261" lon="6.4994">
        <ele>124.9</ele>
        <time>2013-03-27T13:19:47Z</time>
      </trkpt>
      <trkpt lat="43.43257" lon="6.49929">
        <ele>126.7</ele>
        <time>2013-03-27T13:19:54Z</time>
      </trkpt>
      <trkpt lat="43.43256" lon="6.49918">
        <ele>128</ele>
        <time>2013-03-27T13:20:04Z</time>
      </trkpt>
      <trkpt lat="43.43249" lon="6.4991">
        <ele>127.7</ele>
        <time>2013-03-27T13:23:29Z</time>
      </trkpt>
      <trkpt lat="43.43248" lon="6.4991">
        <ele>127.7</ele>
        <time>2013-03-27T13:23:30Z</time>
      </trkpt>
      <trkpt lat="43.43248" lon="6.49912">
        <ele>128.7</ele>
        <time>2013-03-27T13:24:36Z</time>
      </trkpt>
      <trkpt lat="43.4325" lon="6.49912">
        <ele>128.3</ele>
        <time>2013-03-27T13:24:37Z</time>
      </trkpt>
      <trkpt lat="43.43262" lon="6.49901">
        <ele>127.6</ele>
        <time>2013-03-27T13:24:52Z</time>
      </trkpt>
      <trkpt lat="43.43265" lon="6.49891">
        <ele>127.7</ele>
        <time>2013-03-27T13:25:00Z</time>
      </trkpt>
      <trkpt lat="43.43268" lon="6.4988">
        <ele>128.6</ele>
        <time>2013-03-27T13:25:08Z</time>
      </trkpt>
      <trkpt lat="43.43271" lon="6.49868">
        <ele>128.6</ele>
        <time>2013-03-27T13:25:15Z</time>
      </trkpt>
      <trkpt lat="43.43273" lon="6.49857">
        <ele>128.4</ele>
        <time>2013-03-27T13:25:23Z</time>
      </trkpt>
      <trkpt lat="43.43274" lon="6.49847">
        <ele>129.2</ele>
        <time>2013-03-27T13:25:29Z</time>
      </trkpt>
      <trkpt lat="43.43276" lon="6.49835">
        <ele>128.6</ele>
        <time>2013-03-27T13:25:36Z</time>
      </trkpt>
      <trkpt lat="43.43276" lon="6.49823">
        <ele>129.9</ele>
        <time>2013-03-27T13:25:43Z</time>
      </trkpt>
      <trkpt lat="43.43276" lon="6.49821">
        <ele>129.3</ele>
        <time>2013-03-27T13:25:44Z</time>
      </trkpt>
      <trkpt lat="43.43279" lon="6.498">
        <ele>127.7</ele>
        <time>2013-03-27T13:25:58Z</time>
      </trkpt>
      <trkpt lat="43.43281" lon="6.49789">
        <ele>128.1</ele>
        <time>2013-03-27T13:26:04Z</time>
      </trkpt>
      <trkpt lat="43.43283" lon="6.49778">
        <ele>127.3</ele>
        <time>2013-03-27T13:26:10Z</time>
      </trkpt>
      <trkpt lat="43.43285" lon="6.49766">
        <ele>126.5</ele>
        <time>2013-03-27T13:26:17Z</time>
      </trkpt>
      <trkpt lat="43.43289" lon="6.49755">
        <ele>126</ele>
        <time>2013-03-27T13:26:24Z</time>
      </trkpt>
      <trkpt lat="43.43291" lon="6.49744">
        <ele>125.6</ele>
        <time>2013-03-27T13:26:31Z</time>
      </trkpt>
      <trkpt lat="43.43294" lon="6.49733">
        <ele>125.9</ele>
        <time>2013-03-27T13:26:37Z</time>
      </trkpt>
      <trkpt lat="43.43296" lon="6.49722">
        <ele>126.2</ele>
        <time>2013-03-27T13:26:43Z</time>
      </trkpt>
      <trkpt lat="43.433" lon="6.49711">
        <ele>125.5</ele>
        <time>2013-03-27T13:26:50Z</time>
      </trkpt>
      <trkpt lat="43.433" lon="6.49709">
        <ele>124.9</ele>
        <time>2013-03-27T13:26:51Z</time>
      </trkpt>
      <trkpt lat="43.43306" lon="6.4969">
        <ele>124</ele>
        <time>2013-03-27T13:27:03Z</time>
      </trkpt>
      <trkpt lat="43.43309" lon="6.49679">
        <ele>122.1</ele>
        <time>2013-03-27T13:27:10Z</time>
      </trkpt>
      <trkpt lat="43.43312" lon="6.49668">
        <ele>122.7</ele>
        <time>2013-03-27T13:27:17Z</time>
      </trkpt>
      <trkpt lat="43.43312" lon="6.49656">
        <ele>125.4</ele>
        <time>2013-03-27T13:27:29Z</time>
      </trkpt>
      <trkpt lat="43.43313" lon="6.49645">
        <ele>124.5</ele>
        <time>2013-03-27T13:27:36Z</time>
      </trkpt>
      <trkpt lat="43.43313" lon="6.49634">
        <ele>123.9</ele>
        <time>2013-03-27T13:27:43Z</time>
      </trkpt>
      <trkpt lat="43.43313" lon="6.49623">
        <ele>123</ele>
        <time>2013-03-27T13:27:49Z</time>
      </trkpt>
      <trkpt lat="43.43312" lon="6.49611">
        <ele>124.7</ele>
        <time>2013-03-27T13:27:56Z</time>
      </trkpt>
      <trkpt lat="43.43312" lon="6.49609">
        <ele>124.3</ele>
        <time>2013-03-27T13:27:57Z</time>
      </trkpt>
      <trkpt lat="43.43313" lon="6.49589">
        <ele>124.4</ele>
        <time>2013-03-27T13:28:10Z</time>
      </trkpt>
      <trkpt lat="43.43314" lon="6.49578">
        <ele>123.4</ele>
        <time>2013-03-27T13:28:16Z</time>
      </trkpt>
      <trkpt lat="43.43315" lon="6.49568">
        <ele>123.8</ele>
        <time>2013-03-27T13:28:22Z</time>
      </trkpt>
      <trkpt lat="43.43316" lon="6.49557">
        <ele>123.1</ele>
        <time>2013-03-27T13:28:28Z</time>
      </trkpt>
      <trkpt lat="43.43316" lon="6.49545">
        <ele>123.2</ele>
        <time>2013-03-27T13:28:34Z</time>
      </trkpt>
      <trkpt lat="43.43317" lon="6.49533">
        <ele>123</ele>
        <time>2013-03-27T13:28:41Z</time>
      </trkpt>
      <trkpt lat="43.43318" lon="6.49522">
        <ele>122.2</ele>
        <time>2013-03-27T13:28:48Z</time>
      </trkpt>
      <trkpt lat="43.43319" lon="6.49512">
        <ele>123.1</ele>
        <time>2013-03-27T13:28:54Z</time>
      </trkpt>
      <trkpt lat="43.4332" lon="6.49501">
        <ele>123.8</ele>
        <time>2013-03-27T13:29:00Z</time>
      </trkpt>
      <trkpt lat="43.4332" lon="6.49499">
        <ele>123</ele>
        <time>2013-03-27T13:29:01Z</time>
      </trkpt>
      <trkpt lat="43.43322" lon="6.49478">
        <ele>121.4</ele>
        <time>2013-03-27T13:29:14Z</time>
      </trkpt>
      <trkpt lat="43.43323" lon="6.49466">
        <ele>122.2</ele>
        <time>2013-03-27T13:29:21Z</time>
      </trkpt>
      <trkpt lat="43.43322" lon="6.49455">
        <ele>121.3</ele>
        <time>2013-03-27T13:29:28Z</time>
      </trkpt>
      <trkpt lat="43.43321" lon="6.49443">
        <ele>121.3</ele>
        <time>2013-03-27T13:29:35Z</time>
      </trkpt>
      <trkpt lat="43.4332" lon="6.49431">
        <ele>121.6</ele>
        <time>2013-03-27T13:29:42Z</time>
      </trkpt>
      <trkpt lat="43.4332" lon="6.49419">
        <ele>122.1</ele>
        <time>2013-03-27T13:29:49Z</time>
      </trkpt>
      <trkpt lat="43.43317" lon="6.49408">
        <ele>122.3</ele>
        <time>2013-03-27T13:29:57Z</time>
      </trkpt>
      <trkpt lat="43.43317" lon="6.49397">
        <ele>122.2</ele>
        <time>2013-03-27T13:30:03Z</time>
      </trkpt>
      <trkpt lat="43.43317" lon="6.49395">
        <ele>122.1</ele>
        <time>2013-03-27T13:30:04Z</time>
      </trkpt>
      <trkpt lat="43.43316" lon="6.49373">
        <ele>120.9</ele>
        <time>2013-03-27T13:30:20Z</time>
      </trkpt>
      <trkpt lat="43.43313" lon="6.49362">
        <ele>121.7</ele>
        <time>2013-03-27T13:30:28Z</time>
      </trkpt>
      <trkpt lat="43.4331" lon="6.49351">
        <ele>123.1</ele>
        <time>2013-03-27T13:30:37Z</time>
      </trkpt>
      <trkpt lat="43.43307" lon="6.4934">
        <ele>125.4</ele>
        <time>2013-03-27T13:30:47Z</time>
      </trkpt>
      <trkpt lat="43.43302" lon="6.49331">
        <ele>124.7</ele>
        <time>2013-03-27T13:30:55Z</time>
      </trkpt>
      <trkpt lat="43.43298" lon="6.49321">
        <ele>126.3</ele>
        <time>2013-03-27T13:31:03Z</time>
      </trkpt>
      <trkpt lat="43.43294" lon="6.49311">
        <ele>127.9</ele>
        <time>2013-03-27T13:31:11Z</time>
      </trkpt>
      <trkpt lat="43.43294" lon="6.4931">
        <ele>128.5</ele>
        <time>2013-03-27T13:31:12Z</time>
      </trkpt>
      <trkpt lat="43.43287" lon="6.4929">
        <ele>131.4</ele>
        <time>2013-03-27T13:31:28Z</time>
      </trkpt>
      <trkpt lat="43.43283" lon="6.4928">
        <ele>132.5</ele>
        <time>2013-03-27T13:31:36Z</time>
      </trkpt>
      <trkpt lat="43.43277" lon="6.49271">
        <ele>133.5</ele>
        <time>2013-03-27T13:31:46Z</time>
      </trkpt>
      <trkpt lat="43.43271" lon="6.49263">
        <ele>136.1</ele>
        <time>2013-03-27T13:31:55Z</time>
      </trkpt>
      <trkpt lat="43.43265" lon="6.49255">
        <ele>137.9</ele>
        <time>2013-03-27T13:32:04Z</time>
      </trkpt>
      <trkpt lat="43.43257" lon="6.49249">
        <ele>138</ele>
        <time>2013-03-27T13:32:14Z</time>
      </trkpt>
      <trkpt lat="43.43256" lon="6.49249">
        <ele>138.5</ele>
        <time>2013-03-27T13:32:15Z</time>
      </trkpt>
      <trkpt lat="43.4324" lon="6.49243">
        <ele>141.8</ele>
        <time>2013-03-27T13:32:37Z</time>
      </trkpt>
      <trkpt lat="43.43232" lon="6.49243">
        <ele>144</ele>
        <time>2013-03-27T13:32:46Z</time>
      </trkpt>
      <trkpt lat="43.43224" lon="6.49245">
        <ele>145.1</ele>
        <time>2013-03-27T13:32:55Z</time>
      </trkpt>
      <trkpt lat="43.43216" lon="6.49248">
        <ele>144.9</ele>
        <time>2013-03-27T13:33:04Z</time>
      </trkpt>
      <trkpt lat="43.43208" lon="6.49248">
        <ele>144.7</ele>
        <time>2013-03-27T13:33:12Z</time>
      </trkpt>
      <trkpt lat="43.43199" lon="6.49248">
        <ele>144.9</ele>
        <time>2013-03-27T13:33:19Z</time>
      </trkpt>
      <trkpt lat="43.43198" lon="6.49248">
        <ele>144.8</ele>
        <time>2013-03-27T13:33:20Z</time>
      </trkpt>
      <trkpt lat="43.43183" lon="6.4924">
        <ele>146.7</ele>
        <time>2013-03-27T13:33:33Z</time>
      </trkpt>
      <trkpt lat="43.43176" lon="6.49234">
        <ele>144.7</ele>
        <time>2013-03-27T13:33:40Z</time>
      </trkpt>
      <trkpt lat="43.43171" lon="6.49225">
        <ele>144.6</ele>
        <time>2013-03-27T13:33:48Z</time>
      </trkpt>
      <trkpt lat="43.43166" lon="6.49216">
        <ele>143.8</ele>
        <time>2013-03-27T13:33:57Z</time>
      </trkpt>
      <trkpt lat="43.4316" lon="6.49207">
        <ele>143.4</ele>
        <time>2013-03-27T13:34:05Z</time>
      </trkpt>
      <trkpt lat="43.43154" lon="6.49198">
        <ele>144</ele>
        <time>2013-03-27T13:34:14Z</time>
      </trkpt>
      <trkpt lat="43.43149" lon="6.49189">
        <ele>143.9</ele>
        <time>2013-03-27T13:34:22Z</time>
      </trkpt>
      <trkpt lat="43.43149" lon="6.49188">
        <ele>143.3</ele>
        <time>2013-03-27T13:34:23Z</time>
      </trkpt>
      <trkpt lat="43.43138" lon="6.49171">
        <ele>146.7</ele>
        <time>2013-03-27T13:34:41Z</time>
      </trkpt>
      <trkpt lat="43.43133" lon="6.49163">
        <ele>148.2</ele>
        <time>2013-03-27T13:34:50Z</time>
      </trkpt>
      <trkpt lat="43.43129" lon="6.49153">
        <ele>149.3</ele>
        <time>2013-03-27T13:34:57Z</time>
      </trkpt>
      <trkpt lat="43.43125" lon="6.49142">
        <ele>149.9</ele>
        <time>2013-03-27T13:35:06Z</time>
      </trkpt>
      <trkpt lat="43.43121" lon="6.49131">
        <ele>151.7</ele>
        <time>2013-03-27T13:35:14Z</time>
      </trkpt>
      <trkpt lat="43.43117" lon="6.49121">
        <ele>152.1</ele>
        <time>2013-03-27T13:35:22Z</time>
      </trkpt>
      <trkpt lat="43.43111" lon="6.49113">
        <ele>152.4</ele>
        <time>2013-03-27T13:35:29Z</time>
      </trkpt>
      <trkpt lat="43.4311" lon="6.49111">
        <ele>152.7</ele>
        <time>2013-03-27T13:35:30Z</time>
      </trkpt>
      <trkpt lat="43.43098" lon="6.49096">
        <ele>154.3</ele>
        <time>2013-03-27T13:35:48Z</time>
      </trkpt>
      <trkpt lat="43.43091" lon="6.4909">
        <ele>152.3</ele>
        <time>2013-03-27T13:35:55Z</time>
      </trkpt>
      <trkpt lat="43.43085" lon="6.49083">
        <ele>152.1</ele>
        <time>2013-03-27T13:36:02Z</time>
      </trkpt>
      <trkpt lat="43.43079" lon="6.49075">
        <ele>151.8</ele>
        <time>2013-03-27T13:36:10Z</time>
      </trkpt>
      <trkpt lat="43.43072" lon="6.4907">
        <ele>150.9</ele>
        <time>2013-03-27T13:36:19Z</time>
      </trkpt>
      <trkpt lat="43.43065" lon="6.49064">
        <ele>151</ele>
        <time>2013-03-27T13:36:28Z</time>
      </trkpt>
      <trkpt lat="43.43058" lon="6.49057">
        <ele>149.3</ele>
        <time>2013-03-27T13:36:36Z</time>
      </trkpt>
      <trkpt lat="43.43057" lon="6.49056">
        <ele>149.6</ele>
        <time>2013-03-27T13:36:37Z</time>
      </trkpt>
      <trkpt lat="43.43045" lon="6.49043">
        <ele>147.6</ele>
        <time>2013-03-27T13:36:52Z</time>
      </trkpt>
      <trkpt lat="43.43038" lon="6.49035">
        <ele>144.7</ele>
        <time>2013-03-27T13:37:03Z</time>
      </trkpt>
      <trkpt lat="43.43031" lon="6.49028">
        <ele>144.4</ele>
        <time>2013-03-27T13:37:11Z</time>
      </trkpt>
      <trkpt lat="43.43024" lon="6.49021">
        <ele>143.2</ele>
        <time>2013-03-27T13:37:18Z</time>
      </trkpt>
      <trkpt lat="43.43017" lon="6.49015">
        <ele>141.3</ele>
        <time>2013-03-27T13:37:27Z</time>
      </trkpt>
      <trkpt lat="43.4301" lon="6.4901">
        <ele>141.6</ele>
        <time>2013-03-27T13:37:34Z</time>
      </trkpt>
      <trkpt lat="43.43003" lon="6.49003">
        <ele>141.5</ele>
        <time>2013-03-27T13:37:40Z</time>
      </trkpt>
      <trkpt lat="43.43002" lon="6.49002">
        <ele>142.1</ele>
        <time>2013-03-27T13:37:41Z</time>
      </trkpt>
      <trkpt lat="43.42989" lon="6.4899">
        <ele>142</ele>
        <time>2013-03-27T13:37:54Z</time>
      </trkpt>
      <trkpt lat="43.42983" lon="6.48984">
        <ele>142.8</ele>
        <time>2013-03-27T13:38:00Z</time>
      </trkpt>
      <trkpt lat="43.42976" lon="6.48976">
        <ele>141.2</ele>
        <time>2013-03-27T13:38:08Z</time>
      </trkpt>
      <trkpt lat="43.42968" lon="6.4897">
        <ele>141.9</ele>
        <time>2013-03-27T13:38:15Z</time>
      </trkpt>
      <trkpt lat="43.42962" lon="6.48963">
        <ele>142.3</ele>
        <time>2013-03-27T13:38:22Z</time>
      </trkpt>
      <trkpt lat="43.42956" lon="6.48956">
        <ele>142.3</ele>
        <time>2013-03-27T13:38:29Z</time>
      </trkpt>
      <trkpt lat="43.42951" lon="6.48947">
        <ele>143.1</ele>
        <time>2013-03-27T13:38:36Z</time>
      </trkpt>
      <trkpt lat="43.42945" lon="6.48939">
        <ele>143.5</ele>
        <time>2013-03-27T13:38:42Z</time>
      </trkpt>
      <trkpt lat="43.42943" lon="6.48938">
        <ele>144</ele>
        <time>2013-03-27T13:38:43Z</time>
      </trkpt>
      <trkpt lat="43.42931" lon="6.48925">
        <ele>144.7</ele>
        <time>2013-03-27T13:38:57Z</time>
      </trkpt>
      <trkpt lat="43.42923" lon="6.48919">
        <ele>145.8</ele>
        <time>2013-03-27T13:39:06Z</time>
      </trkpt>
      <trkpt lat="43.42917" lon="6.48913">
        <ele>145.9</ele>
        <time>2013-03-27T13:39:14Z</time>
      </trkpt>
      <trkpt lat="43.4291" lon="6.48905">
        <ele>146</ele>
        <time>2013-03-27T13:39:22Z</time>
      </trkpt>
      <trkpt lat="43.42902" lon="6.48899">
        <ele>148.1</ele>
        <time>2013-03-27T13:39:29Z</time>
      </trkpt>
      <trkpt lat="43.42894" lon="6.48894">
        <ele>150</ele>
        <time>2013-03-27T13:39:38Z</time>
      </trkpt>
      <trkpt lat="43.42888" lon="6.48887">
        <ele>150.5</ele>
        <time>2013-03-27T13:39:47Z</time>
      </trkpt>
      <trkpt lat="43.42887" lon="6.48886">
        <ele>150.7</ele>
        <time>2013-03-27T13:39:48Z</time>
      </trkpt>
      <trkpt lat="43.42873" lon="6.48875">
        <ele>153.4</ele>
        <time>2013-03-27T13:40:08Z</time>
      </trkpt>
      <trkpt lat="43.42868" lon="6.48865">
        <ele>156.6</ele>
        <time>2013-03-27T13:40:19Z</time>
      </trkpt>
      <trkpt lat="43.42863" lon="6.48855">
        <ele>159.1</ele>
        <time>2013-03-27T13:40:29Z</time>
      </trkpt>
      <trkpt lat="43.42857" lon="6.48846">
        <ele>161.4</ele>
        <time>2013-03-27T13:40:40Z</time>
      </trkpt>
      <trkpt lat="43.42852" lon="6.48838">
        <ele>162.5</ele>
        <time>2013-03-27T13:40:50Z</time>
      </trkpt>
      <trkpt lat="43.42851" lon="6.48837">
        <ele>162.5</ele>
        <time>2013-03-27T13:40:51Z</time>
      </trkpt>
      <trkpt lat="43.42843" lon="6.48817">
        <ele>163.5</ele>
        <time>2013-03-27T13:41:08Z</time>
      </trkpt>
      <trkpt lat="43.4284" lon="6.48806">
        <ele>164.1</ele>
        <time>2013-03-27T13:41:18Z</time>
      </trkpt>
      <trkpt lat="43.42837" lon="6.48795">
        <ele>165.2</ele>
        <time>2013-03-27T13:41:27Z</time>
      </trkpt>
      <trkpt lat="43.42833" lon="6.48786">
        <ele>165.8</ele>
        <time>2013-03-27T13:41:35Z</time>
      </trkpt>
      <trkpt lat="43.4283" lon="6.48774">
        <ele>165.4</ele>
        <time>2013-03-27T13:41:48Z</time>
      </trkpt>
      <trkpt lat="43.42826" lon="6.48764">
        <ele>164.5</ele>
        <time>2013-03-27T13:47:09Z</time>
      </trkpt>
      <trkpt lat="43.42826" lon="6.48763">
        <ele>164.1</ele>
        <time>2013-03-27T13:47:10Z</time>
      </trkpt>
      <trkpt lat="43.42816" lon="6.48744">
        <ele>163.5</ele>
        <time>2013-03-27T13:47:31Z</time>
      </trkpt>
      <trkpt lat="43.42812" lon="6.48735">
        <ele>162.9</ele>
        <time>2013-03-27T13:47:41Z</time>
      </trkpt>
      <trkpt lat="43.42807" lon="6.48725">
        <ele>161.2</ele>
        <time>2013-03-27T13:47:50Z</time>
      </trkpt>
      <trkpt lat="43.42804" lon="6.48715">
        <ele>160.8</ele>
        <time>2013-03-27T13:47:58Z</time>
      </trkpt>
      <trkpt lat="43.428" lon="6.48704">
        <ele>160</ele>
        <time>2013-03-27T13:48:06Z</time>
      </trkpt>
      <trkpt lat="43.42797" lon="6.48693">
        <ele>158.5</ele>
        <time>2013-03-27T13:48:15Z</time>
      </trkpt>
      <trkpt lat="43.42796" lon="6.48692">
        <ele>157.8</ele>
        <time>2013-03-27T13:48:16Z</time>
      </trkpt>
      <trkpt lat="43.4279" lon="6.48672">
        <ele>158.8</ele>
        <time>2013-03-27T13:48:30Z</time>
      </trkpt>
      <trkpt lat="43.42784" lon="6.48663">
        <ele>159.7</ele>
        <time>2013-03-27T13:48:37Z</time>
      </trkpt>
      <trkpt lat="43.4278" lon="6.48653">
        <ele>160.1</ele>
        <time>2013-03-27T13:48:46Z</time>
      </trkpt>
      <trkpt lat="43.42776" lon="6.48642">
        <ele>162.6</ele>
        <time>2013-03-27T13:48:56Z</time>
      </trkpt>
      <trkpt lat="43.42772" lon="6.48632">
        <ele>164.2</ele>
        <time>2013-03-27T13:49:09Z</time>
      </trkpt>
      <trkpt lat="43.42767" lon="6.48622">
        <ele>166.2</ele>
        <time>2013-03-27T13:49:21Z</time>
      </trkpt>
      <trkpt lat="43.42767" lon="6.48621">
        <ele>165.9</ele>
        <time>2013-03-27T13:49:22Z</time>
      </trkpt>
      <trkpt lat="43.42764" lon="6.48598">
        <ele>169.1</ele>
        <time>2013-03-27T13:49:45Z</time>
      </trkpt>
      <trkpt lat="43.42764" lon="6.48585">
        <ele>169.8</ele>
        <time>2013-03-27T13:49:56Z</time>
      </trkpt>
      <trkpt lat="43.42763" lon="6.48573">
        <ele>170.3</ele>
        <time>2013-03-27T13:50:06Z</time>
      </trkpt>
      <trkpt lat="43.42766" lon="6.48562">
        <ele>170.3</ele>
        <time>2013-03-27T13:50:17Z</time>
      </trkpt>
      <trkpt lat="43.42773" lon="6.48556">
        <ele>169</ele>
        <time>2013-03-27T13:50:28Z</time>
      </trkpt>
      <trkpt lat="43.42774" lon="6.48555">
        <ele>169.3</ele>
        <time>2013-03-27T13:50:29Z</time>
      </trkpt>
      <trkpt lat="43.42787" lon="6.48541">
        <ele>167.3</ele>
        <time>2013-03-27T13:50:48Z</time>
      </trkpt>
      <trkpt lat="43.42791" lon="6.48531">
        <ele>166.6</ele>
        <time>2013-03-27T13:51:00Z</time>
      </trkpt>
      <trkpt lat="43.42793" lon="6.4852">
        <ele>166.6</ele>
        <time>2013-03-27T13:51:09Z</time>
      </trkpt>
      <trkpt lat="43.42786" lon="6.48514">
        <ele>165.6</ele>
        <time>2013-03-27T13:51:20Z</time>
      </trkpt>
      <trkpt lat="43.42778" lon="6.48513">
        <ele>165.4</ele>
        <time>2013-03-27T13:51:27Z</time>
      </trkpt>
      <trkpt lat="43.42769" lon="6.48511">
        <ele>165.9</ele>
        <time>2013-03-27T13:51:37Z</time>
      </trkpt>
      <trkpt lat="43.42768" lon="6.48511">
        <ele>166.1</ele>
        <time>2013-03-27T13:51:38Z</time>
      </trkpt>
      <trkpt lat="43.42752" lon="6.48507">
        <ele>166.4</ele>
        <time>2013-03-27T13:51:54Z</time>
      </trkpt>
      <trkpt lat="43.42744" lon="6.48506">
        <ele>165.8</ele>
        <time>2013-03-27T13:52:01Z</time>
      </trkpt>
      <trkpt lat="43.42735" lon="6.48507">
        <ele>165.5</ele>
        <time>2013-03-27T13:52:09Z</time>
      </trkpt>
      <trkpt lat="43.42728" lon="6.48511">
        <ele>163.7</ele>
        <time>2013-03-27T13:52:17Z</time>
      </trkpt>
      <trkpt lat="43.42721" lon="6.48516">
        <ele>163.9</ele>
        <time>2013-03-27T13:52:25Z</time>
      </trkpt>
      <trkpt lat="43.42715" lon="6.48525">
        <ele>163.5</ele>
        <time>2013-03-27T13:52:33Z</time>
      </trkpt>
      <trkpt lat="43.42711" lon="6.48534">
        <ele>163.6</ele>
        <time>2013-03-27T13:52:45Z</time>
      </trkpt>
      <trkpt lat="43.4271" lon="6.48535">
        <ele>163.5</ele>
        <time>2013-03-27T13:52:46Z</time>
      </trkpt>
      <trkpt lat="43.42698" lon="6.4855">
        <ele>164.3</ele>
        <time>2013-03-27T13:53:01Z</time>
      </trkpt>
      <trkpt lat="43.42691" lon="6.48558">
        <ele>164.4</ele>
        <time>2013-03-27T13:53:09Z</time>
      </trkpt>
      <trkpt lat="43.42684" lon="6.48564">
        <ele>164.8</ele>
        <time>2013-03-27T13:53:17Z</time>
      </trkpt>
      <trkpt lat="43.42677" lon="6.48571">
        <ele>164.7</ele>
        <time>2013-03-27T13:53:26Z</time>
      </trkpt>
      <trkpt lat="43.42669" lon="6.48575">
        <ele>165.7</ele>
        <time>2013-03-27T13:53:35Z</time>
      </trkpt>
      <trkpt lat="43.42661" lon="6.48575">
        <ele>165.4</ele>
        <time>2013-03-27T13:53:44Z</time>
      </trkpt>
      <trkpt lat="43.42653" lon="6.48573">
        <ele>166.2</ele>
        <time>2013-03-27T13:53:53Z</time>
      </trkpt>
      <trkpt lat="43.42652" lon="6.48572">
        <ele>166.1</ele>
        <time>2013-03-27T13:53:54Z</time>
      </trkpt>
      <trkpt lat="43.42637" lon="6.4857">
        <ele>166.3</ele>
        <time>2013-03-27T13:54:07Z</time>
      </trkpt>
      <trkpt lat="43.42628" lon="6.4857">
        <ele>165.9</ele>
        <time>2013-03-27T13:54:16Z</time>
      </trkpt>
      <trkpt lat="43.42621" lon="6.48567">
        <ele>165.6</ele>
        <time>2013-03-27T13:54:27Z</time>
      </trkpt>
      <trkpt lat="43.42612" lon="6.48563">
        <ele>165.9</ele>
        <time>2013-03-27T13:54:39Z</time>
      </trkpt>
      <trkpt lat="43.42605" lon="6.4856">
        <ele>167.3</ele>
        <time>2013-03-27T13:54:49Z</time>
      </trkpt>
      <trkpt lat="43.42597" lon="6.48556">
        <ele>167.8</ele>
        <time>2013-03-27T13:54:57Z</time>
      </trkpt>
      <trkpt lat="43.42595" lon="6.48556">
        <ele>167.3</ele>
        <time>2013-03-27T13:54:58Z</time>
      </trkpt>
      <trkpt lat="43.4258" lon="6.48551">
        <ele>168.9</ele>
        <time>2013-03-27T13:55:14Z</time>
      </trkpt>
      <trkpt lat="43.42572" lon="6.48548">
        <ele>170</ele>
        <time>2013-03-27T13:55:24Z</time>
      </trkpt>
      <trkpt lat="43.42563" lon="6.48546">
        <ele>171</ele>
        <time>2013-03-27T13:55:34Z</time>
      </trkpt>
      <trkpt lat="43.42555" lon="6.48545">
        <ele>172.1</ele>
        <time>2013-03-27T13:55:42Z</time>
      </trkpt>
      <trkpt lat="43.42546" lon="6.48545">
        <ele>174.7</ele>
        <time>2013-03-27T13:55:53Z</time>
      </trkpt>
      <trkpt lat="43.42538" lon="6.48544">
        <ele>174.9</ele>
        <time>2013-03-27T13:56:03Z</time>
      </trkpt>
      <trkpt lat="43.42537" lon="6.48544">
        <ele>174.9</ele>
        <time>2013-03-27T13:56:04Z</time>
      </trkpt>
      <trkpt lat="43.4252" lon="6.48548">
        <ele>177.3</ele>
        <time>2013-03-27T13:56:21Z</time>
      </trkpt>
      <trkpt lat="43.42512" lon="6.4855">
        <ele>176.9</ele>
        <time>2013-03-27T13:56:31Z</time>
      </trkpt>
      <trkpt lat="43.42503" lon="6.48551">
        <ele>178.5</ele>
        <time>2013-03-27T13:56:42Z</time>
      </trkpt>
      <trkpt lat="43.42495" lon="6.48553">
        <ele>178.5</ele>
        <time>2013-03-27T13:56:52Z</time>
      </trkpt>
      <trkpt lat="43.42487" lon="6.48554">
        <ele>179.8</ele>
        <time>2013-03-27T13:56:58Z</time>
      </trkpt>
      <trkpt lat="43.42479" lon="6.48555">
        <ele>180</ele>
        <time>2013-03-27T13:57:05Z</time>
      </trkpt>
      <trkpt lat="43.42478" lon="6.48555">
        <ele>180.6</ele>
        <time>2013-03-27T13:57:06Z</time>
      </trkpt>
      <trkpt lat="43.42462" lon="6.48555">
        <ele>180.9</ele>
        <time>2013-03-27T13:57:19Z</time>
      </trkpt>
      <trkpt lat="43.42454" lon="6.48555">
        <ele>180.2</ele>
        <time>2013-03-27T13:57:28Z</time>
      </trkpt>
      <trkpt lat="43.42446" lon="6.48556">
        <ele>181.1</ele>
        <time>2013-03-27T13:57:35Z</time>
      </trkpt>
      <trkpt lat="43.42437" lon="6.48555">
        <ele>181.2</ele>
        <time>2013-03-27T13:57:43Z</time>
      </trkpt>
      <trkpt lat="43.42429" lon="6.48555">
        <ele>180.4</ele>
        <time>2013-03-27T13:57:51Z</time>
      </trkpt>
      <trkpt lat="43.4242" lon="6.48555">
        <ele>180.7</ele>
        <time>2013-03-27T13:57:58Z</time>
      </trkpt>
      <trkpt lat="43.42411" lon="6.48556">
        <ele>181.4</ele>
        <time>2013-03-27T13:58:07Z</time>
      </trkpt>
      <trkpt lat="43.4241" lon="6.48556">
        <ele>181.2</ele>
        <time>2013-03-27T13:58:08Z</time>
      </trkpt>
      <trkpt lat="43.42395" lon="6.4856">
        <ele>181.1</ele>
        <time>2013-03-27T13:58:30Z</time>
      </trkpt>
      <trkpt lat="43.42386" lon="6.48559">
        <ele>181.2</ele>
        <time>2013-03-27T13:58:50Z</time>
      </trkpt>
      <trkpt lat="43.42378" lon="6.48565">
        <ele>181.2</ele>
        <time>2013-03-27T13:59:04Z</time>
      </trkpt>
      <trkpt lat="43.42371" lon="6.48571">
        <ele>180.8</ele>
        <time>2013-03-27T13:59:12Z</time>
      </trkpt>
      <trkpt lat="43.4237" lon="6.48572">
        <ele>180.5</ele>
        <time>2013-03-27T13:59:13Z</time>
      </trkpt>
      <trkpt lat="43.42355" lon="6.48577">
        <ele>180.4</ele>
        <time>2013-03-27T13:59:33Z</time>
      </trkpt>
      <trkpt lat="43.42348" lon="6.48584">
        <ele>180.4</ele>
        <time>2013-03-27T13:59:41Z</time>
      </trkpt>
      <trkpt lat="43.42343" lon="6.48592">
        <ele>180.4</ele>
        <time>2013-03-27T13:59:48Z</time>
      </trkpt>
      <trkpt lat="43.42336" lon="6.48599">
        <ele>181.4</ele>
        <time>2013-03-27T13:59:57Z</time>
      </trkpt>
      <trkpt lat="43.42328" lon="6.48604">
        <ele>181.1</ele>
        <time>2013-03-27T14:00:05Z</time>
      </trkpt>
      <trkpt lat="43.42319" lon="6.48607">
        <ele>182.7</ele>
        <time>2013-03-27T14:00:13Z</time>
      </trkpt>
      <trkpt lat="43.42318" lon="6.48607">
        <ele>182.7</ele>
        <time>2013-03-27T14:00:14Z</time>
      </trkpt>
      <trkpt lat="43.42304" lon="6.48617">
        <ele>181.4</ele>
        <time>2013-03-27T14:00:29Z</time>
      </trkpt>
      <trkpt lat="43.42296" lon="6.48623">
        <ele>180.5</ele>
        <time>2013-03-27T14:00:37Z</time>
      </trkpt>
      <trkpt lat="43.42288" lon="6.48628">
        <ele>180.1</ele>
        <time>2013-03-27T14:00:45Z</time>
      </trkpt>
      <trkpt lat="43.4228" lon="6.48626">
        <ele>179.5</ele>
        <time>2013-03-27T14:00:54Z</time>
      </trkpt>
      <trkpt lat="43.42272" lon="6.48623">
        <ele>179.3</ele>
        <time>2013-03-27T14:01:05Z</time>
      </trkpt>
      <trkpt lat="43.42264" lon="6.48617">
        <ele>179.1</ele>
        <time>2013-03-27T14:01:14Z</time>
      </trkpt>
      <trkpt lat="43.42264" lon="6.48616">
        <ele>178.8</ele>
        <time>2013-03-27T14:01:15Z</time>
      </trkpt>
      <trkpt lat="43.42253" lon="6.48598">
        <ele>178.3</ele>
        <time>2013-03-27T14:01:33Z</time>
      </trkpt>
      <trkpt lat="43.42249" lon="6.48588">
        <ele>178.1</ele>
        <time>2013-03-27T14:01:41Z</time>
      </trkpt>
      <trkpt lat="43.42243" lon="6.48579">
        <ele>177.5</ele>
        <time>2013-03-27T14:01:49Z</time>
      </trkpt>
      <trkpt lat="43.42239" lon="6.4857">
        <ele>176.6</ele>
        <time>2013-03-27T14:01:57Z</time>
      </trkpt>
      <trkpt lat="43.42234" lon="6.48561">
        <ele>177.2</ele>
        <time>2013-03-27T14:02:05Z</time>
      </trkpt>
      <trkpt lat="43.42229" lon="6.48551">
        <ele>176.6</ele>
        <time>2013-03-27T14:02:13Z</time>
      </trkpt>
      <trkpt lat="43.42225" lon="6.48542">
        <ele>175.8</ele>
        <time>2013-03-27T14:02:20Z</time>
      </trkpt>
      <trkpt lat="43.42224" lon="6.4854">
        <ele>175.6</ele>
        <time>2013-03-27T14:02:21Z</time>
      </trkpt>
      <trkpt lat="43.42214" lon="6.48523">
        <ele>172.9</ele>
        <time>2013-03-27T14:02:34Z</time>
      </trkpt>
      <trkpt lat="43.42208" lon="6.48515">
        <ele>173.5</ele>
        <time>2013-03-27T14:02:41Z</time>
      </trkpt>
      <trkpt lat="43.42202" lon="6.48506">
        <ele>173</ele>
        <time>2013-03-27T14:02:50Z</time>
      </trkpt>
      <trkpt lat="43.42198" lon="6.48497">
        <ele>171</ele>
        <time>2013-03-27T14:02:59Z</time>
      </trkpt>
      <trkpt lat="43.42194" lon="6.48487">
        <ele>170.8</ele>
        <time>2013-03-27T14:03:07Z</time>
      </trkpt>
      <trkpt lat="43.42189" lon="6.48477">
        <ele>171.3</ele>
        <time>2013-03-27T14:03:17Z</time>
      </trkpt>
      <trkpt lat="43.42186" lon="6.48467">
        <ele>171.8</ele>
        <time>2013-03-27T14:03:25Z</time>
      </trkpt>
      <trkpt lat="43.42185" lon="6.48465">
        <ele>171.9</ele>
        <time>2013-03-27T14:03:26Z</time>
      </trkpt>
      <trkpt lat="43.42177" lon="6.48447">
        <ele>173.5</ele>
        <time>2013-03-27T14:03:40Z</time>
      </trkpt>
      <trkpt lat="43.42171" lon="6.48439">
        <ele>172.9</ele>
        <time>2013-03-27T14:03:47Z</time>
      </trkpt>
      <trkpt lat="43.42165" lon="6.48432">
        <ele>173.6</ele>
        <time>2013-03-27T14:03:53Z</time>
      </trkpt>
      <trkpt lat="43.42159" lon="6.48424">
        <ele>171.7</ele>
        <time>2013-03-27T14:04:01Z</time>
      </trkpt>
      <trkpt lat="43.42156" lon="6.48413">
        <ele>170.1</ele>
        <time>2013-03-27T14:04:10Z</time>
      </trkpt>
      <trkpt lat="43.42151" lon="6.48404">
        <ele>168.8</ele>
        <time>2013-03-27T14:04:19Z</time>
      </trkpt>
      <trkpt lat="43.42146" lon="6.48395">
        <ele>167.2</ele>
        <time>2013-03-27T14:04:29Z</time>
      </trkpt>
      <trkpt lat="43.42145" lon="6.48394">
        <ele>166.8</ele>
        <time>2013-03-27T14:04:30Z</time>
      </trkpt>
      <trkpt lat="43.42138" lon="6.48374">
        <ele>160</ele>
        <time>2013-03-27T14:04:54Z</time>
      </trkpt>
      <trkpt lat="43.42135" lon="6.48363">
        <ele>158.3</ele>
        <time>2013-03-27T14:05:08Z</time>
      </trkpt>
      <trkpt lat="43.42132" lon="6.48352">
        <ele>157.6</ele>
        <time>2013-03-27T14:05:28Z</time>
      </trkpt>
      <trkpt lat="43.42128" lon="6.48341">
        <ele>152.6</ele>
        <time>2013-03-27T14:05:51Z</time>
      </trkpt>
      <trkpt lat="43.42128" lon="6.4834">
        <ele>152.9</ele>
        <time>2013-03-27T14:05:52Z</time>
      </trkpt>
      <trkpt lat="43.4212" lon="6.4832">
        <ele>148.3</ele>
        <time>2013-03-27T14:06:18Z</time>
      </trkpt>
      <trkpt lat="43.42118" lon="6.48308">
        <ele>146.2</ele>
        <time>2013-03-27T14:06:32Z</time>
      </trkpt>
      <trkpt lat="43.42118" lon="6.48296">
        <ele>145.3</ele>
        <time>2013-03-27T14:06:50Z</time>
      </trkpt>
      <trkpt lat="43.42114" lon="6.48285">
        <ele>142.5</ele>
        <time>2013-03-27T14:07:09Z</time>
      </trkpt>
      <trkpt lat="43.42114" lon="6.48284">
        <ele>142.1</ele>
        <time>2013-03-27T14:07:10Z</time>
      </trkpt>
      <trkpt lat="43.42107" lon="6.48263">
        <ele>137.1</ele>
        <time>2013-03-27T14:07:42Z</time>
      </trkpt>
      <trkpt lat="43.42105" lon="6.48252">
        <ele>134</ele>
        <time>2013-03-27T14:07:53Z</time>
      </trkpt>
      <trkpt lat="43.42099" lon="6.48245">
        <ele>135</ele>
        <time>2013-03-27T14:08:00Z</time>
      </trkpt>
      <trkpt lat="43.42091" lon="6.4824">
        <ele>133.7</ele>
        <time>2013-03-27T14:08:09Z</time>
      </trkpt>
      <trkpt lat="43.42084" lon="6.48233">
        <ele>131.8</ele>
        <time>2013-03-27T14:08:28Z</time>
      </trkpt>
      <trkpt lat="43.42084" lon="6.48233">
        <ele>131.7</ele>
        <time>2013-03-27T14:08:29Z</time>
      </trkpt>
      <trkpt lat="43.42068" lon="6.48241">
        <ele>126.1</ele>
        <time>2013-03-27T14:09:05Z</time>
      </trkpt>
      <trkpt lat="43.42061" lon="6.48248">
        <ele>123.6</ele>
        <time>2013-03-27T14:09:15Z</time>
      </trkpt>
      <trkpt lat="43.42054" lon="6.48255">
        <ele>123.1</ele>
        <time>2013-03-27T14:09:25Z</time>
      </trkpt>
      <trkpt lat="43.42047" lon="6.48264">
        <ele>122.7</ele>
        <time>2013-03-27T14:09:35Z</time>
      </trkpt>
      <trkpt lat="43.42047" lon="6.48264">
        <ele>122.3</ele>
        <time>2013-03-27T14:09:36Z</time>
      </trkpt>
      <trkpt lat="43.4204" lon="6.48261">
        <ele>118.8</ele>
        <time>2013-03-27T14:10:13Z</time>
      </trkpt>
      <trkpt lat="43.42041" lon="6.4825">
        <ele>115.8</ele>
        <time>2013-03-27T14:10:24Z</time>
      </trkpt>
      <trkpt lat="43.42042" lon="6.48238">
        <ele>116.1</ele>
        <time>2013-03-27T14:10:35Z</time>
      </trkpt>
      <trkpt lat="43.42038" lon="6.48227">
        <ele>114.5</ele>
        <time>2013-03-27T14:10:43Z</time>
      </trkpt>
      <trkpt lat="43.42038" lon="6.48225">
        <ele>114.4</ele>
        <time>2013-03-27T14:10:44Z</time>
      </trkpt>
      <trkpt lat="43.42027" lon="6.4821">
        <ele>111.9</ele>
        <time>2013-03-27T14:12:42Z</time>
      </trkpt>
      <trkpt lat="43.42027" lon="6.48209">
        <ele>111.5</ele>
        <time>2013-03-27T14:12:43Z</time>
      </trkpt>
      <trkpt lat="43.42027" lon="6.48197">
        <ele>110.6</ele>
        <time>2013-03-27T14:17:44Z</time>
      </trkpt>
      <trkpt lat="43.42038" lon="6.4818">
        <ele>109.6</ele>
        <time>2013-03-27T14:18:07Z</time>
      </trkpt>
      <trkpt lat="43.42044" lon="6.48172">
        <ele>108.8</ele>
        <time>2013-03-27T14:18:18Z</time>
      </trkpt>
      <trkpt lat="43.4205" lon="6.48163">
        <ele>107.6</ele>
        <time>2013-03-27T14:18:28Z</time>
      </trkpt>
      <trkpt lat="43.42055" lon="6.48155">
        <ele>107.1</ele>
        <time>2013-03-27T14:18:38Z</time>
      </trkpt>
      <trkpt lat="43.42062" lon="6.48146">
        <ele>106.4</ele>
        <time>2013-03-27T14:18:48Z</time>
      </trkpt>
      <trkpt lat="43.42062" lon="6.48146">
        <ele>105.9</ele>
        <time>2013-03-27T14:18:49Z</time>
      </trkpt>
      <trkpt lat="43.42073" lon="6.48131">
        <ele>105.4</ele>
        <time>2013-03-27T14:19:05Z</time>
      </trkpt>
      <trkpt lat="43.42078" lon="6.48122">
        <ele>105.3</ele>
        <time>2013-03-27T14:19:13Z</time>
      </trkpt>
      <trkpt lat="43.42082" lon="6.48112">
        <ele>104.2</ele>
        <time>2013-03-27T14:19:20Z</time>
      </trkpt>
      <trkpt lat="43.42085" lon="6.48101">
        <ele>103.7</ele>
        <time>2013-03-27T14:19:28Z</time>
      </trkpt>
      <trkpt lat="43.42089" lon="6.48091">
        <ele>102.9</ele>
        <time>2013-03-27T14:19:35Z</time>
      </trkpt>
      <trkpt lat="43.42093" lon="6.48081">
        <ele>103.7</ele>
        <time>2013-03-27T14:19:42Z</time>
      </trkpt>
      <trkpt lat="43.42097" lon="6.48071">
        <ele>102.4</ele>
        <time>2013-03-27T14:19:51Z</time>
      </trkpt>
      <trkpt lat="43.42097" lon="6.4807">
        <ele>102.3</ele>
        <time>2013-03-27T14:19:52Z</time>
      </trkpt>
      <trkpt lat="43.42107" lon="6.48052">
        <ele>102.2</ele>
        <time>2013-03-27T14:20:08Z</time>
      </trkpt>
      <trkpt lat="43.42112" lon="6.48043">
        <ele>99.9</ele>
        <time>2013-03-27T14:20:16Z</time>
      </trkpt>
      <trkpt lat="43.42114" lon="6.48033">
        <ele>99.7</ele>
        <time>2013-03-27T14:20:23Z</time>
      </trkpt>
      <trkpt lat="43.42115" lon="6.48021">
        <ele>98.6</ele>
        <time>2013-03-27T14:20:30Z</time>
      </trkpt>
      <trkpt lat="43.42114" lon="6.4801">
        <ele>97.4</ele>
        <time>2013-03-27T14:20:37Z</time>
      </trkpt>
      <trkpt lat="43.4211" lon="6.48">
        <ele>97</ele>
        <time>2013-03-27T14:20:43Z</time>
      </trkpt>
      <trkpt lat="43.42108" lon="6.47988">
        <ele>97.2</ele>
        <time>2013-03-27T14:20:50Z</time>
      </trkpt>
      <trkpt lat="43.42106" lon="6.47977">
        <ele>94.3</ele>
        <time>2013-03-27T14:20:58Z</time>
      </trkpt>
      <trkpt lat="43.42105" lon="6.47976">
        <ele>94.1</ele>
        <time>2013-03-27T14:20:59Z</time>
      </trkpt>
      <trkpt lat="43.421" lon="6.47957">
        <ele>93.9</ele>
        <time>2013-03-27T14:21:12Z</time>
      </trkpt>
      <trkpt lat="43.42098" lon="6.47945">
        <ele>91.5</ele>
        <time>2013-03-27T14:21:20Z</time>
      </trkpt>
      <trkpt lat="43.42097" lon="6.47934">
        <ele>90.7</ele>
        <time>2013-03-27T14:21:27Z</time>
      </trkpt>
      <trkpt lat="43.42095" lon="6.47923">
        <ele>88.8</ele>
        <time>2013-03-27T14:21:34Z</time>
      </trkpt>
      <trkpt lat="43.42091" lon="6.47914">
        <ele>87</ele>
        <time>2013-03-27T14:21:41Z</time>
      </trkpt>
      <trkpt lat="43.42088" lon="6.47903">
        <ele>87.3</ele>
        <time>2013-03-27T14:21:48Z</time>
      </trkpt>
      <trkpt lat="43.42084" lon="6.47893">
        <ele>86.9</ele>
        <time>2013-03-27T14:21:55Z</time>
      </trkpt>
      <trkpt lat="43.42079" lon="6.47884">
        <ele>85</ele>
        <time>2013-03-27T14:22:02Z</time>
      </trkpt>
      <trkpt lat="43.42078" lon="6.47883">
        <ele>85</ele>
        <time>2013-03-27T14:22:03Z</time>
      </trkpt>
      <trkpt lat="43.42068" lon="6.47866">
        <ele>82.7</ele>
        <time>2013-03-27T14:22:17Z</time>
      </trkpt>
      <trkpt lat="43.42063" lon="6.47856">
        <ele>81</ele>
        <time>2013-03-27T14:22:25Z</time>
      </trkpt>
      <trkpt lat="43.42057" lon="6.47848">
        <ele>82.4</ele>
        <time>2013-03-27T14:22:33Z</time>
      </trkpt>
      <trkpt lat="43.42051" lon="6.47839">
        <ele>80.3</ele>
        <time>2013-03-27T14:22:42Z</time>
      </trkpt>
      <trkpt lat="43.42047" lon="6.4783">
        <ele>77.8</ele>
        <time>2013-03-27T14:22:51Z</time>
      </trkpt>
      <trkpt lat="43.42042" lon="6.47821">
        <ele>76.4</ele>
        <time>2013-03-27T14:22:59Z</time>
      </trkpt>
      <trkpt lat="43.42035" lon="6.47815">
        <ele>74.8</ele>
        <time>2013-03-27T14:23:06Z</time>
      </trkpt>
      <trkpt lat="43.42034" lon="6.47814">
        <ele>74.7</ele>
        <time>2013-03-27T14:23:07Z</time>
      </trkpt>
      <trkpt lat="43.42022" lon="6.478">
        <ele>72.4</ele>
        <time>2013-03-27T14:23:21Z</time>
      </trkpt>
      <trkpt lat="43.42016" lon="6.47792">
        <ele>68.6</ele>
        <time>2013-03-27T14:23:29Z</time>
      </trkpt>
      <trkpt lat="43.42011" lon="6.47784">
        <ele>68.7</ele>
        <time>2013-03-27T14:23:36Z</time>
      </trkpt>
      <trkpt lat="43.42003" lon="6.47784">
        <ele>70.2</ele>
        <time>2013-03-27T14:23:43Z</time>
      </trkpt>
      <trkpt lat="43.41995" lon="6.47789">
        <ele>71.4</ele>
        <time>2013-03-27T14:23:50Z</time>
      </trkpt>
      <trkpt lat="43.41988" lon="6.47794">
        <ele>70.9</ele>
        <time>2013-03-27T14:24:00Z</time>
      </trkpt>
      <trkpt lat="43.41981" lon="6.47802">
        <ele>70.3</ele>
        <time>2013-03-27T14:24:34Z</time>
      </trkpt>
      <trkpt lat="43.41981" lon="6.47803">
        <ele>70.1</ele>
        <time>2013-03-27T14:24:35Z</time>
      </trkpt>
      <trkpt lat="43.41982" lon="6.47825">
        <ele>71.2</ele>
        <time>2013-03-27T14:24:52Z</time>
      </trkpt>
      <trkpt lat="43.41975" lon="6.47831">
        <ele>70.8</ele>
        <time>2013-03-27T14:25:00Z</time>
      </trkpt>
      <trkpt lat="43.41967" lon="6.47833">
        <ele>70.2</ele>
        <time>2013-03-27T14:25:08Z</time>
      </trkpt>
      <trkpt lat="43.41959" lon="6.47834">
        <ele>71</ele>
        <time>2013-03-27T14:25:15Z</time>
      </trkpt>
      <trkpt lat="43.41952" lon="6.47841">
        <ele>70.4</ele>
        <time>2013-03-27T14:25:23Z</time>
      </trkpt>
      <trkpt lat="43.41946" lon="6.47849">
        <ele>69.4</ele>
        <time>2013-03-27T14:25:31Z</time>
      </trkpt>
      <trkpt lat="43.4194" lon="6.47858">
        <ele>70.2</ele>
        <time>2013-03-27T14:25:40Z</time>
      </trkpt>
      <trkpt lat="43.4194" lon="6.47859">
        <ele>69.8</ele>
        <time>2013-03-27T14:25:41Z</time>
      </trkpt>
      <trkpt lat="43.41931" lon="6.47878">
        <ele>67.9</ele>
        <time>2013-03-27T14:25:58Z</time>
      </trkpt>
      <trkpt lat="43.41925" lon="6.47886">
        <ele>67.5</ele>
        <time>2013-03-27T14:26:07Z</time>
      </trkpt>
      <trkpt lat="43.41919" lon="6.47895">
        <ele>68.2</ele>
        <time>2013-03-27T14:26:16Z</time>
      </trkpt>
      <trkpt lat="43.41915" lon="6.47906">
        <ele>67.1</ele>
        <time>2013-03-27T14:26:23Z</time>
      </trkpt>
      <trkpt lat="43.41911" lon="6.47916">
        <ele>67.5</ele>
        <time>2013-03-27T14:26:31Z</time>
      </trkpt>
      <trkpt lat="43.41906" lon="6.47926">
        <ele>67.3</ele>
        <time>2013-03-27T14:26:38Z</time>
      </trkpt>
      <trkpt lat="43.41903" lon="6.47935">
        <ele>66.9</ele>
        <time>2013-03-27T14:26:45Z</time>
      </trkpt>
      <trkpt lat="43.41903" lon="6.47937">
        <ele>67</ele>
        <time>2013-03-27T14:26:46Z</time>
      </trkpt>
      <trkpt lat="43.41909" lon="6.47956">
        <ele>67.1</ele>
        <time>2013-03-27T14:26:56Z</time>
      </trkpt>
      <trkpt lat="43.41916" lon="6.47961">
        <ele>66.7</ele>
        <time>2013-03-27T14:27:02Z</time>
      </trkpt>
      <trkpt lat="43.41921" lon="6.47971">
        <ele>65.9</ele>
        <time>2013-03-27T14:27:18Z</time>
      </trkpt>
      <trkpt lat="43.41915" lon="6.47979">
        <ele>66</ele>
        <time>2013-03-27T14:27:27Z</time>
      </trkpt>
      <trkpt lat="43.41907" lon="6.47985">
        <ele>65.2</ele>
        <time>2013-03-27T14:27:36Z</time>
      </trkpt>
      <trkpt lat="43.41903" lon="6.47995">
        <ele>64.5</ele>
        <time>2013-03-27T14:27:44Z</time>
      </trkpt>
      <trkpt lat="43.41897" lon="6.48004">
        <ele>64.9</ele>
        <time>2013-03-27T14:27:58Z</time>
      </trkpt>
      <trkpt lat="43.41896" lon="6.48004">
        <ele>65.1</ele>
        <time>2013-03-27T14:27:59Z</time>
      </trkpt>
      <trkpt lat="43.41881" lon="6.47994">
        <ele>66.6</ele>
        <time>2013-03-27T14:28:17Z</time>
      </trkpt>
      <trkpt lat="43.41873" lon="6.47995">
        <ele>65.7</ele>
        <time>2013-03-27T14:28:25Z</time>
      </trkpt>
      <trkpt lat="43.41865" lon="6.47997">
        <ele>66.8</ele>
        <time>2013-03-27T14:28:37Z</time>
      </trkpt>
      <trkpt lat="43.41857" lon="6.47997">
        <ele>65.8</ele>
        <time>2013-03-27T14:28:44Z</time>
      </trkpt>
      <trkpt lat="43.4185" lon="6.48001">
        <ele>65.8</ele>
        <time>2013-03-27T14:28:50Z</time>
      </trkpt>
      <trkpt lat="43.41842" lon="6.48004">
        <ele>65.2</ele>
        <time>2013-03-27T14:28:56Z</time>
      </trkpt>
      <trkpt lat="43.41834" lon="6.48007">
        <ele>66</ele>
        <time>2013-03-27T14:29:03Z</time>
      </trkpt>
      <trkpt lat="43.41832" lon="6.48007">
        <ele>65.7</ele>
        <time>2013-03-27T14:29:04Z</time>
      </trkpt>
      <trkpt lat="43.41819" lon="6.48013">
        <ele>66.4</ele>
        <time>2013-03-27T14:29:15Z</time>
      </trkpt>
      <trkpt lat="43.41813" lon="6.48023">
        <ele>66.3</ele>
        <time>2013-03-27T14:29:23Z</time>
      </trkpt>
      <trkpt lat="43.41812" lon="6.48035">
        <ele>66.3</ele>
        <time>2013-03-27T14:29:31Z</time>
      </trkpt>
      <trkpt lat="43.41812" lon="6.48047">
        <ele>64.8</ele>
        <time>2013-03-27T14:29:39Z</time>
      </trkpt>
      <trkpt lat="43.41815" lon="6.48058">
        <ele>65.4</ele>
        <time>2013-03-27T14:29:47Z</time>
      </trkpt>
      <trkpt lat="43.41819" lon="6.48069">
        <ele>65.2</ele>
        <time>2013-03-27T14:29:55Z</time>
      </trkpt>
      <trkpt lat="43.41823" lon="6.4808">
        <ele>64.8</ele>
        <time>2013-03-27T14:30:03Z</time>
      </trkpt>
      <trkpt lat="43.41826" lon="6.48091">
        <ele>64.2</ele>
        <time>2013-03-27T14:30:12Z</time>
      </trkpt>
      <trkpt lat="43.41826" lon="6.48092">
        <ele>64.6</ele>
        <time>2013-03-27T14:30:13Z</time>
      </trkpt>
      <trkpt lat="43.41815" lon="6.48095">
        <ele>65.2</ele>
        <time>2013-03-27T14:30:38Z</time>
      </trkpt>
      <trkpt lat="43.41808" lon="6.48088">
        <ele>65.2</ele>
        <time>2013-03-27T14:30:46Z</time>
      </trkpt>
      <trkpt lat="43.41801" lon="6.48081">
        <ele>64.5</ele>
        <time>2013-03-27T14:30:54Z</time>
      </trkpt>
      <trkpt lat="43.41793" lon="6.48078">
        <ele>65.1</ele>
        <time>2013-03-27T14:31:01Z</time>
      </trkpt>
      <trkpt lat="43.41785" lon="6.48079">
        <ele>64.8</ele>
        <time>2013-03-27T14:31:07Z</time>
      </trkpt>
      <trkpt lat="43.41777" lon="6.48082">
        <ele>64.1</ele>
        <time>2013-03-27T14:31:14Z</time>
      </trkpt>
      <trkpt lat="43.41776" lon="6.48083">
        <ele>64.2</ele>
        <time>2013-03-27T14:31:15Z</time>
      </trkpt>
      <trkpt lat="43.41762" lon="6.48095">
        <ele>63.8</ele>
        <time>2013-03-27T14:31:29Z</time>
      </trkpt>
      <trkpt lat="43.41756" lon="6.48102">
        <ele>62.4</ele>
        <time>2013-03-27T14:31:37Z</time>
      </trkpt>
      <trkpt lat="43.41749" lon="6.48109">
        <ele>64.3</ele>
        <time>2013-03-27T14:31:44Z</time>
      </trkpt>
      <trkpt lat="43.41743" lon="6.48117">
        <ele>62.6</ele>
        <time>2013-03-27T14:31:51Z</time>
      </trkpt>
      <trkpt lat="43.41737" lon="6.48125">
        <ele>61.7</ele>
        <time>2013-03-27T14:31:58Z</time>
      </trkpt>
      <trkpt lat="43.41732" lon="6.48133">
        <ele>62.4</ele>
        <time>2013-03-27T14:32:04Z</time>
      </trkpt>
      <trkpt lat="43.41727" lon="6.48144">
        <ele>62.9</ele>
        <time>2013-03-27T14:32:11Z</time>
      </trkpt>
      <trkpt lat="43.41727" lon="6.48156">
        <ele>63</ele>
        <time>2013-03-27T14:32:20Z</time>
      </trkpt>
      <trkpt lat="43.41728" lon="6.48158">
        <ele>63.3</ele>
        <time>2013-03-27T14:32:21Z</time>
      </trkpt>
      <trkpt lat="43.4174" lon="6.48172">
        <ele>61.9</ele>
        <time>2013-03-27T14:32:35Z</time>
      </trkpt>
      <trkpt lat="43.41746" lon="6.4818">
        <ele>61.2</ele>
        <time>2013-03-27T14:32:42Z</time>
      </trkpt>
      <trkpt lat="43.41745" lon="6.48191">
        <ele>61.2</ele>
        <time>2013-03-27T14:32:54Z</time>
      </trkpt>
      <trkpt lat="43.41739" lon="6.48199">
        <ele>60.7</ele>
        <time>2013-03-27T14:33:02Z</time>
      </trkpt>
      <trkpt lat="43.41732" lon="6.48207">
        <ele>61.2</ele>
        <time>2013-03-27T14:33:10Z</time>
      </trkpt>
      <trkpt lat="43.41727" lon="6.48215">
        <ele>60</ele>
        <time>2013-03-27T14:33:17Z</time>
      </trkpt>
      <trkpt lat="43.41721" lon="6.48223">
        <ele>61.3</ele>
        <time>2013-03-27T14:33:24Z</time>
      </trkpt>
      <trkpt lat="43.41721" lon="6.48224">
        <ele>61.4</ele>
        <time>2013-03-27T14:33:25Z</time>
      </trkpt>
      <trkpt lat="43.41711" lon="6.4824">
        <ele>59.7</ele>
        <time>2013-03-27T14:33:37Z</time>
      </trkpt>
      <trkpt lat="43.41706" lon="6.48249">
        <ele>59.4</ele>
        <time>2013-03-27T14:33:43Z</time>
      </trkpt>
      <trkpt lat="43.41702" lon="6.48258">
        <ele>59.5</ele>
        <time>2013-03-27T14:33:49Z</time>
      </trkpt>
      <trkpt lat="43.41697" lon="6.48268">
        <ele>58.6</ele>
        <time>2013-03-27T14:33:56Z</time>
      </trkpt>
      <trkpt lat="43.41692" lon="6.48277">
        <ele>58.7</ele>
        <time>2013-03-27T14:34:03Z</time>
      </trkpt>
      <trkpt lat="43.41689" lon="6.48288">
        <ele>58</ele>
        <time>2013-03-27T14:34:10Z</time>
      </trkpt>
      <trkpt lat="43.41687" lon="6.48299">
        <ele>58.8</ele>
        <time>2013-03-27T14:34:17Z</time>
      </trkpt>
      <trkpt lat="43.41688" lon="6.48311">
        <ele>58.3</ele>
        <time>2013-03-27T14:34:24Z</time>
      </trkpt>
      <trkpt lat="43.41693" lon="6.48321">
        <ele>59.4</ele>
        <time>2013-03-27T14:34:32Z</time>
      </trkpt>
      <trkpt lat="43.41694" lon="6.48322">
        <ele>59.1</ele>
        <time>2013-03-27T14:34:33Z</time>
      </trkpt>
      <trkpt lat="43.41708" lon="6.48332">
        <ele>57.3</ele>
        <time>2013-03-27T14:34:47Z</time>
      </trkpt>
      <trkpt lat="43.41717" lon="6.4833">
        <ele>57.8</ele>
        <time>2013-03-27T14:34:55Z</time>
      </trkpt>
      <trkpt lat="43.41725" lon="6.4833">
        <ele>56.1</ele>
        <time>2013-03-27T14:35:04Z</time>
      </trkpt>
      <trkpt lat="43.41733" lon="6.48331">
        <ele>57.6</ele>
        <time>2013-03-27T14:35:11Z</time>
      </trkpt>
      <trkpt lat="43.41742" lon="6.48333">
        <ele>56.6</ele>
        <time>2013-03-27T14:35:19Z</time>
      </trkpt>
      <trkpt lat="43.4175" lon="6.48334">
        <ele>57.1</ele>
        <time>2013-03-27T14:35:27Z</time>
      </trkpt>
      <trkpt lat="43.41759" lon="6.48334">
        <ele>57.8</ele>
        <time>2013-03-27T14:35:39Z</time>
      </trkpt>
      <trkpt lat="43.41759" lon="6.48334">
        <ele>57.8</ele>
        <time>2013-03-27T14:35:40Z</time>
      </trkpt>
      <trkpt lat="43.41775" lon="6.48336">
        <ele>56.9</ele>
        <time>2013-03-27T14:35:58Z</time>
      </trkpt>
      <trkpt lat="43.41782" lon="6.48342">
        <ele>57.8</ele>
        <time>2013-03-27T14:36:06Z</time>
      </trkpt>
      <trkpt lat="43.41789" lon="6.48348">
        <ele>57.9</ele>
        <time>2013-03-27T14:36:13Z</time>
      </trkpt>
      <trkpt lat="43.41797" lon="6.48352">
        <ele>58.8</ele>
        <time>2013-03-27T14:36:26Z</time>
      </trkpt>
      <trkpt lat="43.41801" lon="6.48363">
        <ele>57.4</ele>
        <time>2013-03-27T14:37:30Z</time>
      </trkpt>
      <trkpt lat="43.41801" lon="6.48363">
        <ele>57.1</ele>
        <time>2013-03-27T14:37:31Z</time>
      </trkpt>
      <trkpt lat="43.41787" lon="6.48373">
        <ele>57.3</ele>
        <time>2013-03-27T14:37:48Z</time>
      </trkpt>
      <trkpt lat="43.41779" lon="6.48375">
        <ele>59.7</ele>
        <time>2013-03-27T14:37:57Z</time>
      </trkpt>
      <trkpt lat="43.4177" lon="6.48378">
        <ele>60.1</ele>
        <time>2013-03-27T14:38:06Z</time>
      </trkpt>
      <trkpt lat="43.41762" lon="6.48381">
        <ele>60.3</ele>
        <time>2013-03-27T14:38:16Z</time>
      </trkpt>
      <trkpt lat="43.41754" lon="6.48384">
        <ele>59.4</ele>
        <time>2013-03-27T14:38:25Z</time>
      </trkpt>
      <trkpt lat="43.41747" lon="6.48389">
        <ele>60.5</ele>
        <time>2013-03-27T14:38:33Z</time>
      </trkpt>
      <trkpt lat="43.41746" lon="6.4839">
        <ele>60.6</ele>
        <time>2013-03-27T14:38:34Z</time>
      </trkpt>
      <trkpt lat="43.41733" lon="6.48403">
        <ele>59.9</ele>
        <time>2013-03-27T14:38:49Z</time>
      </trkpt>
      <trkpt lat="43.41727" lon="6.48412">
        <ele>59.5</ele>
        <time>2013-03-27T14:38:58Z</time>
      </trkpt>
      <trkpt lat="43.41722" lon="6.48421">
        <ele>59.9</ele>
        <time>2013-03-27T14:39:05Z</time>
      </trkpt>
      <trkpt lat="43.41718" lon="6.48429">
        <ele>60</ele>
        <time>2013-03-27T14:39:13Z</time>
      </trkpt>
      <trkpt lat="43.41717" lon="6.48441">
        <ele>59.4</ele>
        <time>2013-03-27T14:39:22Z</time>
      </trkpt>
      <trkpt lat="43.4172" lon="6.48452">
        <ele>59.5</ele>
        <time>2013-03-27T14:39:30Z</time>
      </trkpt>
      <trkpt lat="43.41721" lon="6.48464">
        <ele>58.6</ele>
        <time>2013-03-27T14:39:39Z</time>
      </trkpt>
      <trkpt lat="43.41721" lon="6.48464">
        <ele>59</ele>
        <time>2013-03-27T14:39:40Z</time>
      </trkpt>
      <trkpt lat="43.41717" lon="6.48486">
        <ele>57.8</ele>
        <time>2013-03-27T14:40:02Z</time>
      </trkpt>
      <trkpt lat="43.41716" lon="6.48498">
        <ele>58.7</ele>
        <time>2013-03-27T14:40:11Z</time>
      </trkpt>
      <trkpt lat="43.41715" lon="6.48508">
        <ele>58.6</ele>
        <time>2013-03-27T14:40:18Z</time>
      </trkpt>
      <trkpt lat="43.41713" lon="6.48519">
        <ele>58.1</ele>
        <time>2013-03-27T14:40:25Z</time>
      </trkpt>
      <trkpt lat="43.41711" lon="6.4853">
        <ele>58</ele>
        <time>2013-03-27T14:40:33Z</time>
      </trkpt>
      <trkpt lat="43.41708" lon="6.48541">
        <ele>57.4</ele>
        <time>2013-03-27T14:40:42Z</time>
      </trkpt>
      <trkpt lat="43.41707" lon="6.48542">
        <ele>57.3</ele>
        <time>2013-03-27T14:40:43Z</time>
      </trkpt>
      <trkpt lat="43.41709" lon="6.48564">
        <ele>57.7</ele>
        <time>2013-03-27T14:40:58Z</time>
      </trkpt>
      <trkpt lat="43.41712" lon="6.48574">
        <ele>57.7</ele>
        <time>2013-03-27T14:41:05Z</time>
      </trkpt>
      <trkpt lat="43.41713" lon="6.48586">
        <ele>57.2</ele>
        <time>2013-03-27T14:41:13Z</time>
      </trkpt>
      <trkpt lat="43.41714" lon="6.48597">
        <ele>58</ele>
        <time>2013-03-27T14:41:20Z</time>
      </trkpt>
      <trkpt lat="43.41714" lon="6.48609">
        <ele>58.1</ele>
        <time>2013-03-27T14:41:28Z</time>
      </trkpt>
      <trkpt lat="43.4171" lon="6.48619">
        <ele>58.4</ele>
        <time>2013-03-27T14:41:37Z</time>
      </trkpt>
      <trkpt lat="43.41702" lon="6.48623">
        <ele>58.2</ele>
        <time>2013-03-27T14:41:44Z</time>
      </trkpt>
      <trkpt lat="43.41701" lon="6.48624">
        <ele>57.7</ele>
        <time>2013-03-27T14:41:45Z</time>
      </trkpt>
      <trkpt lat="43.41689" lon="6.48637">
        <ele>55.8</ele>
        <time>2013-03-27T14:41:59Z</time>
      </trkpt>
      <trkpt lat="43.41683" lon="6.48644">
        <ele>56.1</ele>
        <time>2013-03-27T14:42:06Z</time>
      </trkpt>
      <trkpt lat="43.41677" lon="6.48653">
        <ele>57.6</ele>
        <time>2013-03-27T14:42:13Z</time>
      </trkpt>
      <trkpt lat="43.41672" lon="6.48661">
        <ele>56.4</ele>
        <time>2013-03-27T14:42:20Z</time>
      </trkpt>
      <trkpt lat="43.41666" lon="6.48669">
        <ele>56.3</ele>
        <time>2013-03-27T14:42:27Z</time>
      </trkpt>
      <trkpt lat="43.41661" lon="6.48678">
        <ele>58</ele>
        <time>2013-03-27T14:42:34Z</time>
      </trkpt>
      <trkpt lat="43.41657" lon="6.48689">
        <ele>57.4</ele>
        <time>2013-03-27T14:42:41Z</time>
      </trkpt>
      <trkpt lat="43.41654" lon="6.487">
        <ele>57.4</ele>
        <time>2013-03-27T14:42:48Z</time>
      </trkpt>
      <trkpt lat="43.41653" lon="6.48701">
        <ele>57.3</ele>
        <time>2013-03-27T14:42:49Z</time>
      </trkpt>
      <trkpt lat="43.41649" lon="6.48722">
        <ele>58.2</ele>
        <time>2013-03-27T14:43:02Z</time>
      </trkpt>
      <trkpt lat="43.41646" lon="6.48733">
        <ele>58.5</ele>
        <time>2013-03-27T14:43:08Z</time>
      </trkpt>
      <trkpt lat="43.41642" lon="6.48743">
        <ele>58.6</ele>
        <time>2013-03-27T14:43:15Z</time>
      </trkpt>
      <trkpt lat="43.41635" lon="6.4875">
        <ele>58.5</ele>
        <time>2013-03-27T14:43:22Z</time>
      </trkpt>
      <trkpt lat="43.41629" lon="6.48758">
        <ele>59.5</ele>
        <time>2013-03-27T14:43:30Z</time>
      </trkpt>
      <trkpt lat="43.41625" lon="6.4877">
        <ele>59.9</ele>
        <time>2013-03-27T14:43:38Z</time>
      </trkpt>
      <trkpt lat="43.41623" lon="6.48782">
        <ele>61.7</ele>
        <time>2013-03-27T14:43:46Z</time>
      </trkpt>
      <trkpt lat="43.41622" lon="6.48793">
        <ele>60.9</ele>
        <time>2013-03-27T14:43:53Z</time>
      </trkpt>
      <trkpt lat="43.41622" lon="6.48795">
        <ele>60.3</ele>
        <time>2013-03-27T14:43:54Z</time>
      </trkpt>
      <trkpt lat="43.41611" lon="6.48813">
        <ele>61.7</ele>
        <time>2013-03-27T14:44:10Z</time>
      </trkpt>
      <trkpt lat="43.4161" lon="6.48823">
        <ele>61.8</ele>
        <time>2013-03-27T14:44:16Z</time>
      </trkpt>
      <trkpt lat="43.41609" lon="6.48836">
        <ele>62.9</ele>
        <time>2013-03-27T14:44:23Z</time>
      </trkpt>
      <trkpt lat="43.4161" lon="6.48847">
        <ele>63.3</ele>
        <time>2013-03-27T14:44:30Z</time>
      </trkpt>
      <trkpt lat="43.41612" lon="6.48858">
        <ele>62.9</ele>
        <time>2013-03-27T14:44:37Z</time>
      </trkpt>
      <trkpt lat="43.41613" lon="6.4887">
        <ele>63.1</ele>
        <time>2013-03-27T14:44:45Z</time>
      </trkpt>
      <trkpt lat="43.4161" lon="6.48881">
        <ele>64.5</ele>
        <time>2013-03-27T14:44:52Z</time>
      </trkpt>
      <trkpt lat="43.41607" lon="6.48891">
        <ele>64.1</ele>
        <time>2013-03-27T14:44:59Z</time>
      </trkpt>
      <trkpt lat="43.41606" lon="6.48892">
        <ele>64.3</ele>
        <time>2013-03-27T14:45:00Z</time>
      </trkpt>
      <trkpt lat="43.41611" lon="6.48914">
        <ele>65.9</ele>
        <time>2013-03-27T14:45:15Z</time>
      </trkpt>
      <trkpt lat="43.41617" lon="6.4892">
        <ele>65.3</ele>
        <time>2013-03-27T14:45:21Z</time>
      </trkpt>
      <trkpt lat="43.41623" lon="6.48928">
        <ele>66.3</ele>
        <time>2013-03-27T14:45:28Z</time>
      </trkpt>
      <trkpt lat="43.4163" lon="6.48935">
        <ele>65.4</ele>
        <time>2013-03-27T14:45:36Z</time>
      </trkpt>
      <trkpt lat="43.41636" lon="6.48942">
        <ele>65.5</ele>
        <time>2013-03-27T14:45:43Z</time>
      </trkpt>
      <trkpt lat="43.41642" lon="6.48949">
        <ele>65.6</ele>
        <time>2013-03-27T14:45:50Z</time>
      </trkpt>
      <trkpt lat="43.41648" lon="6.48956">
        <ele>65.7</ele>
        <time>2013-03-27T14:45:57Z</time>
      </trkpt>
      <trkpt lat="43.41654" lon="6.48964">
        <ele>65</ele>
        <time>2013-03-27T14:46:04Z</time>
      </trkpt>
      <trkpt lat="43.41655" lon="6.48965">
        <ele>65.1</ele>
        <time>2013-03-27T14:46:05Z</time>
      </trkpt>
      <trkpt lat="43.41664" lon="6.48983">
        <ele>64.5</ele>
        <time>2013-03-27T14:46:19Z</time>
      </trkpt>
      <trkpt lat="43.41671" lon="6.4899">
        <ele>66.1</ele>
        <time>2013-03-27T14:46:25Z</time>
      </trkpt>
      <trkpt lat="43.4168" lon="6.48993">
        <ele>66.4</ele>
        <time>2013-03-27T14:46:32Z</time>
      </trkpt>
      <trkpt lat="43.41688" lon="6.48992">
        <ele>65.9</ele>
        <time>2013-03-27T14:46:40Z</time>
      </trkpt>
      <trkpt lat="43.41696" lon="6.48989">
        <ele>65.5</ele>
        <time>2013-03-27T14:46:47Z</time>
      </trkpt>
      <trkpt lat="43.41705" lon="6.48988">
        <ele>66</ele>
        <time>2013-03-27T14:46:54Z</time>
      </trkpt>
      <trkpt lat="43.41714" lon="6.48986">
        <ele>65.3</ele>
        <time>2013-03-27T14:47:01Z</time>
      </trkpt>
      <trkpt lat="43.41722" lon="6.48985">
        <ele>66.3</ele>
        <time>2013-03-27T14:47:08Z</time>
      </trkpt>
      <trkpt lat="43.41723" lon="6.48985">
        <ele>66.3</ele>
        <time>2013-03-27T14:47:09Z</time>
      </trkpt>
      <trkpt lat="43.41738" lon="6.48991">
        <ele>64.9</ele>
        <time>2013-03-27T14:47:24Z</time>
      </trkpt>
      <trkpt lat="43.41745" lon="6.48998">
        <ele>64.9</ele>
        <time>2013-03-27T14:47:34Z</time>
      </trkpt>
      <trkpt lat="43.41753" lon="6.49002">
        <ele>65.7</ele>
        <time>2013-03-27T14:47:43Z</time>
      </trkpt>
      <trkpt lat="43.41762" lon="6.49003">
        <ele>66</ele>
        <time>2013-03-27T14:47:51Z</time>
      </trkpt>
      <trkpt lat="43.4177" lon="6.49004">
        <ele>66.6</ele>
        <time>2013-03-27T14:47:58Z</time>
      </trkpt>
      <trkpt lat="43.41779" lon="6.49">
        <ele>66.6</ele>
        <time>2013-03-27T14:48:06Z</time>
      </trkpt>
      <trkpt lat="43.41786" lon="6.48993">
        <ele>66.7</ele>
        <time>2013-03-27T14:48:15Z</time>
      </trkpt>
      <trkpt lat="43.41786" lon="6.48993">
        <ele>66.7</ele>
        <time>2013-03-27T14:48:16Z</time>
      </trkpt>
      <trkpt lat="43.41798" lon="6.48976">
        <ele>66.1</ele>
        <time>2013-03-27T14:48:37Z</time>
      </trkpt>
      <trkpt lat="43.41803" lon="6.48965">
        <ele>67</ele>
        <time>2013-03-27T14:48:44Z</time>
      </trkpt>
      <trkpt lat="43.41805" lon="6.48954">
        <ele>66.2</ele>
        <time>2013-03-27T14:48:52Z</time>
      </trkpt>
      <trkpt lat="43.41811" lon="6.48945">
        <ele>66.8</ele>
        <time>2013-03-27T14:49:01Z</time>
      </trkpt>
      <trkpt lat="43.4182" lon="6.48945">
        <ele>66.8</ele>
        <time>2013-03-27T14:49:08Z</time>
      </trkpt>
      <trkpt lat="43.41828" lon="6.48944">
        <ele>66.6</ele>
        <time>2013-03-27T14:49:16Z</time>
      </trkpt>
      <trkpt lat="43.41829" lon="6.48943">
        <ele>66.9</ele>
        <time>2013-03-27T14:49:17Z</time>
      </trkpt>
      <trkpt lat="43.41845" lon="6.48943">
        <ele>66.3</ele>
        <time>2013-03-27T14:49:30Z</time>
      </trkpt>
      <trkpt lat="43.41853" lon="6.48947">
        <ele>66</ele>
        <time>2013-03-27T14:49:37Z</time>
      </trkpt>
      <trkpt lat="43.41861" lon="6.4895">
        <ele>67.5</ele>
        <time>2013-03-27T14:49:44Z</time>
      </trkpt>
      <trkpt lat="43.41869" lon="6.48951">
        <ele>65.2</ele>
        <time>2013-03-27T14:49:50Z</time>
      </trkpt>
      <trkpt lat="43.41877" lon="6.48951">
        <ele>67.5</ele>
        <time>2013-03-27T14:49:57Z</time>
      </trkpt>
      <trkpt lat="43.41885" lon="6.48953">
        <ele>66.3</ele>
        <time>2013-03-27T14:50:04Z</time>
      </trkpt>
      <trkpt lat="43.41893" lon="6.4895">
        <ele>66.5</ele>
        <time>2013-03-27T14:50:10Z</time>
      </trkpt>
      <trkpt lat="43.41902" lon="6.48949">
        <ele>67.2</ele>
        <time>2013-03-27T14:50:17Z</time>
      </trkpt>
      <trkpt lat="43.41903" lon="6.48948">
        <ele>67.2</ele>
        <time>2013-03-27T14:50:18Z</time>
      </trkpt>
      <trkpt lat="43.41917" lon="6.48941">
        <ele>67.1</ele>
        <time>2013-03-27T14:50:34Z</time>
      </trkpt>
      <trkpt lat="43.41924" lon="6.48934">
        <ele>67.9</ele>
        <time>2013-03-27T14:50:42Z</time>
      </trkpt>
      <trkpt lat="43.41932" lon="6.48931">
        <ele>67.3</ele>
        <time>2013-03-27T14:50:50Z</time>
      </trkpt>
      <trkpt lat="43.41928" lon="6.48941">
        <ele>67</ele>
        <time>2013-03-27T14:51:09Z</time>
      </trkpt>
      <trkpt lat="43.4192" lon="6.48946">
        <ele>67.1</ele>
        <time>2013-03-27T14:51:17Z</time>
      </trkpt>
      <trkpt lat="43.41916" lon="6.48957">
        <ele>67.1</ele>
        <time>2013-03-27T14:51:25Z</time>
      </trkpt>
      <trkpt lat="43.41916" lon="6.48959">
        <ele>67.3</ele>
        <time>2013-03-27T14:51:26Z</time>
      </trkpt>
      <trkpt lat="43.41915" lon="6.48979">
        <ele>67.3</ele>
        <time>2013-03-27T14:51:37Z</time>
      </trkpt>
      <trkpt lat="43.41917" lon="6.4899">
        <ele>68.5</ele>
        <time>2013-03-27T14:51:44Z</time>
      </trkpt>
      <trkpt lat="43.41921" lon="6.49001">
        <ele>68.6</ele>
        <time>2013-03-27T14:51:53Z</time>
      </trkpt>
      <trkpt lat="43.41926" lon="6.49011">
        <ele>68</ele>
        <time>2013-03-27T14:52:30Z</time>
      </trkpt>
      <trkpt lat="43.41926" lon="6.49011">
        <ele>67.8</ele>
        <time>2013-03-27T14:52:31Z</time>
      </trkpt>
      <trkpt lat="43.41942" lon="6.49021">
        <ele>69.6</ele>
        <time>2013-03-27T14:52:48Z</time>
      </trkpt>
      <trkpt lat="43.41949" lon="6.49028">
        <ele>69.9</ele>
        <time>2013-03-27T14:52:57Z</time>
      </trkpt>
      <trkpt lat="43.41956" lon="6.49034">
        <ele>69.9</ele>
        <time>2013-03-27T14:53:04Z</time>
      </trkpt>
      <trkpt lat="43.41963" lon="6.4904">
        <ele>69.9</ele>
        <time>2013-03-27T14:53:11Z</time>
      </trkpt>
      <trkpt lat="43.4197" lon="6.49048">
        <ele>70.3</ele>
        <time>2013-03-27T14:53:19Z</time>
      </trkpt>
      <trkpt lat="43.41977" lon="6.49055">
        <ele>69.3</ele>
        <time>2013-03-27T14:53:31Z</time>
      </trkpt>
      <trkpt lat="43.41977" lon="6.49056">
        <ele>69.3</ele>
        <time>2013-03-27T14:53:32Z</time>
      </trkpt>
      <trkpt lat="43.41987" lon="6.49074">
        <ele>67.5</ele>
        <time>2013-03-27T14:53:47Z</time>
      </trkpt>
      <trkpt lat="43.41994" lon="6.49081">
        <ele>68</ele>
        <time>2013-03-27T14:53:55Z</time>
      </trkpt>
      <trkpt lat="43.42001" lon="6.49088">
        <ele>68</ele>
        <time>2013-03-27T14:54:02Z</time>
      </trkpt>
      <trkpt lat="43.42007" lon="6.49094">
        <ele>67.7</ele>
        <time>2013-03-27T14:54:10Z</time>
      </trkpt>
      <trkpt lat="43.42016" lon="6.49097">
        <ele>66.7</ele>
        <time>2013-03-27T14:54:17Z</time>
      </trkpt>
      <trkpt lat="43.42023" lon="6.491">
        <ele>66.2</ele>
        <time>2013-03-27T14:54:24Z</time>
      </trkpt>
      <trkpt lat="43.4203" lon="6.49106">
        <ele>66.2</ele>
        <time>2013-03-27T14:54:31Z</time>
      </trkpt>
      <trkpt lat="43.42038" lon="6.49111">
        <ele>66.8</ele>
        <time>2013-03-27T14:54:38Z</time>
      </trkpt>
      <trkpt lat="43.42039" lon="6.49112">
        <ele>66.2</ele>
        <time>2013-03-27T14:54:39Z</time>
      </trkpt>
      <trkpt lat="43.42051" lon="6.49125">
        <ele>65.4</ele>
        <time>2013-03-27T14:54:52Z</time>
      </trkpt>
      <trkpt lat="43.42057" lon="6.49132">
        <ele>65</ele>
        <time>2013-03-27T14:54:58Z</time>
      </trkpt>
      <trkpt lat="43.42062" lon="6.49141">
        <ele>65.3</ele>
        <time>2013-03-27T14:55:04Z</time>
      </trkpt>
      <trkpt lat="43.42068" lon="6.49148">
        <ele>65</ele>
        <time>2013-03-27T14:55:10Z</time>
      </trkpt>
      <trkpt lat="43.42074" lon="6.49157">
        <ele>64.5</ele>
        <time>2013-03-27T14:55:17Z</time>
      </trkpt>
      <trkpt lat="43.4208" lon="6.49164">
        <ele>65.3</ele>
        <time>2013-03-27T14:55:24Z</time>
      </trkpt>
      <trkpt lat="43.42087" lon="6.49172">
        <ele>64.7</ele>
        <time>2013-03-27T14:55:32Z</time>
      </trkpt>
      <trkpt lat="43.42091" lon="6.49183">
        <ele>64.2</ele>
        <time>2013-03-27T14:55:40Z</time>
      </trkpt>
      <trkpt lat="43.42092" lon="6.49184">
        <ele>63.5</ele>
        <time>2013-03-27T14:55:41Z</time>
      </trkpt>
      <trkpt lat="43.42102" lon="6.492">
        <ele>64.1</ele>
        <time>2013-03-27T14:55:54Z</time>
      </trkpt>
      <trkpt lat="43.42108" lon="6.49208">
        <ele>63.5</ele>
        <time>2013-03-27T14:56:00Z</time>
      </trkpt>
      <trkpt lat="43.42113" lon="6.49218">
        <ele>64.6</ele>
        <time>2013-03-27T14:56:08Z</time>
      </trkpt>
      <trkpt lat="43.4212" lon="6.49225">
        <ele>63.4</ele>
        <time>2013-03-27T14:56:14Z</time>
      </trkpt>
      <trkpt lat="43.42127" lon="6.4923">
        <ele>63.7</ele>
        <time>2013-03-27T14:56:19Z</time>
      </trkpt>
      <trkpt lat="43.42135" lon="6.49234">
        <ele>63.4</ele>
        <time>2013-03-27T14:56:25Z</time>
      </trkpt>
      <trkpt lat="43.42143" lon="6.49235">
        <ele>63.3</ele>
        <time>2013-03-27T14:56:32Z</time>
      </trkpt>
      <trkpt lat="43.42151" lon="6.49234">
        <ele>63.5</ele>
        <time>2013-03-27T14:56:38Z</time>
      </trkpt>
      <trkpt lat="43.42159" lon="6.49231">
        <ele>63</ele>
        <time>2013-03-27T14:56:44Z</time>
      </trkpt>
      <trkpt lat="43.4216" lon="6.4923">
        <ele>62.5</ele>
        <time>2013-03-27T14:56:45Z</time>
      </trkpt>
      <trkpt lat="43.42175" lon="6.49221">
        <ele>62.3</ele>
        <time>2013-03-27T14:57:05Z</time>
      </trkpt>
      <trkpt lat="43.42182" lon="6.49229">
        <ele>62.2</ele>
        <time>2013-03-27T14:57:13Z</time>
      </trkpt>
      <trkpt lat="43.42189" lon="6.49237">
        <ele>62.1</ele>
        <time>2013-03-27T14:57:20Z</time>
      </trkpt>
      <trkpt lat="43.42197" lon="6.49239">
        <ele>61.8</ele>
        <time>2013-03-27T14:57:26Z</time>
      </trkpt>
      <trkpt lat="43.42205" lon="6.49239">
        <ele>60.9</ele>
        <time>2013-03-27T14:57:33Z</time>
      </trkpt>
      <trkpt lat="43.42212" lon="6.49245">
        <ele>60.6</ele>
        <time>2013-03-27T14:57:40Z</time>
      </trkpt>
      <trkpt lat="43.4221" lon="6.49257">
        <ele>60.9</ele>
        <time>2013-03-27T14:57:52Z</time>
      </trkpt>
      <trkpt lat="43.42209" lon="6.49258">
        <ele>61.2</ele>
        <time>2013-03-27T14:57:53Z</time>
      </trkpt>
      <trkpt lat="43.42202" lon="6.49277">
        <ele>63.8</ele>
        <time>2013-03-27T14:58:10Z</time>
      </trkpt>
      <trkpt lat="43.42201" lon="6.49289">
        <ele>63.3</ele>
        <time>2013-03-27T14:58:20Z</time>
      </trkpt>
      <trkpt lat="43.422" lon="6.49302">
        <ele>63.2</ele>
        <time>2013-03-27T14:58:43Z</time>
      </trkpt>
      <trkpt lat="43.42206" lon="6.4931">
        <ele>62.9</ele>
        <time>2013-03-27T14:59:44Z</time>
      </trkpt>
      <trkpt lat="43.42207" lon="6.4931">
        <ele>62.5</ele>
        <time>2013-03-27T14:59:45Z</time>
      </trkpt>
      <trkpt lat="43.42211" lon="6.49321">
        <ele>62.6</ele>
        <time>2013-03-27T15:06:06Z</time>
      </trkpt>
      <trkpt lat="43.42223" lon="6.49337">
        <ele>64.2</ele>
        <time>2013-03-27T15:06:24Z</time>
      </trkpt>
      <trkpt lat="43.4223" lon="6.49343">
        <ele>65.2</ele>
        <time>2013-03-27T15:06:32Z</time>
      </trkpt>
      <trkpt lat="43.42238" lon="6.49348">
        <ele>64.8</ele>
        <time>2013-03-27T15:06:40Z</time>
      </trkpt>
      <trkpt lat="43.42246" lon="6.4935">
        <ele>64.5</ele>
        <time>2013-03-27T15:06:47Z</time>
      </trkpt>
      <trkpt lat="43.42254" lon="6.49349">
        <ele>64.7</ele>
        <time>2013-03-27T15:06:55Z</time>
      </trkpt>
      <trkpt lat="43.42263" lon="6.4935">
        <ele>65</ele>
        <time>2013-03-27T15:07:03Z</time>
      </trkpt>
      <trkpt lat="43.42271" lon="6.49353">
        <ele>66.6</ele>
        <time>2013-03-27T15:07:11Z</time>
      </trkpt>
      <trkpt lat="43.42272" lon="6.49354">
        <ele>66.7</ele>
        <time>2013-03-27T15:07:12Z</time>
      </trkpt>
      <trkpt lat="43.42286" lon="6.49363">
        <ele>66.7</ele>
        <time>2013-03-27T15:07:27Z</time>
      </trkpt>
      <trkpt lat="43.42294" lon="6.49368">
        <ele>66.6</ele>
        <time>2013-03-27T15:07:36Z</time>
      </trkpt>
      <trkpt lat="43.42301" lon="6.49373">
        <ele>67.4</ele>
        <time>2013-03-27T15:07:43Z</time>
      </trkpt>
      <trkpt lat="43.42309" lon="6.49376">
        <ele>67.4</ele>
        <time>2013-03-27T15:07:50Z</time>
      </trkpt>
      <trkpt lat="43.42318" lon="6.4938">
        <ele>68.7</ele>
        <time>2013-03-27T15:07:58Z</time>
      </trkpt>
      <trkpt lat="43.42326" lon="6.49383">
        <ele>69.8</ele>
        <time>2013-03-27T15:08:05Z</time>
      </trkpt>
      <trkpt lat="43.42334" lon="6.49386">
        <ele>69.1</ele>
        <time>2013-03-27T15:08:13Z</time>
      </trkpt>
      <trkpt lat="43.42335" lon="6.49386">
        <ele>69</ele>
        <time>2013-03-27T15:08:14Z</time>
      </trkpt>
      <trkpt lat="43.4235" lon="6.49394">
        <ele>69.9</ele>
        <time>2013-03-27T15:08:30Z</time>
      </trkpt>
      <trkpt lat="43.42358" lon="6.49397">
        <ele>71.2</ele>
        <time>2013-03-27T15:08:38Z</time>
      </trkpt>
      <trkpt lat="43.42366" lon="6.49395">
        <ele>71.1</ele>
        <time>2013-03-27T15:08:45Z</time>
      </trkpt>
      <trkpt lat="43.42374" lon="6.4939">
        <ele>71</ele>
        <time>2013-03-27T15:08:53Z</time>
      </trkpt>
      <trkpt lat="43.42382" lon="6.49384">
        <ele>71.3</ele>
        <time>2013-03-27T15:09:01Z</time>
      </trkpt>
      <trkpt lat="43.4239" lon="6.49381">
        <ele>71.8</ele>
        <time>2013-03-27T15:09:09Z</time>
      </trkpt>
      <trkpt lat="43.42398" lon="6.49381">
        <ele>72.8</ele>
        <time>2013-03-27T15:09:17Z</time>
      </trkpt>
      <trkpt lat="43.424" lon="6.49381">
        <ele>72.5</ele>
        <time>2013-03-27T15:09:18Z</time>
      </trkpt>
      <trkpt lat="43.42416" lon="6.49382">
        <ele>73.7</ele>
        <time>2013-03-27T15:09:33Z</time>
      </trkpt>
      <trkpt lat="43.42424" lon="6.49384">
        <ele>73.2</ele>
        <time>2013-03-27T15:09:41Z</time>
      </trkpt>
      <trkpt lat="43.42432" lon="6.49384">
        <ele>74.9</ele>
        <time>2013-03-27T15:09:48Z</time>
      </trkpt>
      <trkpt lat="43.4244" lon="6.49378">
        <ele>74</ele>
        <time>2013-03-27T15:09:55Z</time>
      </trkpt>
      <trkpt lat="43.42447" lon="6.49372">
        <ele>75.1</ele>
        <time>2013-03-27T15:10:03Z</time>
      </trkpt>
      <trkpt lat="43.42454" lon="6.49364">
        <ele>75.1</ele>
        <time>2013-03-27T15:10:12Z</time>
      </trkpt>
      <trkpt lat="43.42459" lon="6.49355">
        <ele>75.4</ele>
        <time>2013-03-27T15:10:21Z</time>
      </trkpt>
      <trkpt lat="43.4246" lon="6.49354">
        <ele>75.7</ele>
        <time>2013-03-27T15:10:22Z</time>
      </trkpt>
      <trkpt lat="43.42469" lon="6.49338">
        <ele>76.5</ele>
        <time>2013-03-27T15:10:36Z</time>
      </trkpt>
      <trkpt lat="43.42473" lon="6.49328">
        <ele>76.5</ele>
        <time>2013-03-27T15:10:43Z</time>
      </trkpt>
      <trkpt lat="43.42481" lon="6.49322">
        <ele>76.5</ele>
        <time>2013-03-27T15:10:51Z</time>
      </trkpt>
      <trkpt lat="43.42489" lon="6.49318">
        <ele>77.2</ele>
        <time>2013-03-27T15:10:59Z</time>
      </trkpt>
      <trkpt lat="43.42496" lon="6.49311">
        <ele>77</ele>
        <time>2013-03-27T15:11:07Z</time>
      </trkpt>
      <trkpt lat="43.42501" lon="6.49303">
        <ele>77.7</ele>
        <time>2013-03-27T15:11:14Z</time>
      </trkpt>
      <trkpt lat="43.42504" lon="6.49292">
        <ele>78.4</ele>
        <time>2013-03-27T15:11:21Z</time>
      </trkpt>
      <trkpt lat="43.42508" lon="6.49283">
        <ele>78.2</ele>
        <time>2013-03-27T15:11:28Z</time>
      </trkpt>
      <trkpt lat="43.42509" lon="6.49282">
        <ele>78.4</ele>
        <time>2013-03-27T15:11:29Z</time>
      </trkpt>
      <trkpt lat="43.42517" lon="6.49262">
        <ele>78.5</ele>
        <time>2013-03-27T15:11:43Z</time>
      </trkpt>
      <trkpt lat="43.4252" lon="6.49251">
        <ele>79.2</ele>
        <time>2013-03-27T15:11:51Z</time>
      </trkpt>
      <trkpt lat="43.42521" lon="6.49239">
        <ele>80</ele>
        <time>2013-03-27T15:12:01Z</time>
      </trkpt>
      <trkpt lat="43.42529" lon="6.49233">
        <ele>80.6</ele>
        <time>2013-03-27T15:12:12Z</time>
      </trkpt>
      <trkpt lat="43.42537" lon="6.49231">
        <ele>81.2</ele>
        <time>2013-03-27T15:12:21Z</time>
      </trkpt>
      <trkpt lat="43.42543" lon="6.49223">
        <ele>80.5</ele>
        <time>2013-03-27T15:12:29Z</time>
      </trkpt>
      <trkpt lat="43.42543" lon="6.49221">
        <ele>81</ele>
        <time>2013-03-27T15:12:30Z</time>
      </trkpt>
      <trkpt lat="43.4255" lon="6.49201">
        <ele>82.4</ele>
        <time>2013-03-27T15:12:42Z</time>
      </trkpt>
      <trkpt lat="43.42553" lon="6.49191">
        <ele>81.7</ele>
        <time>2013-03-27T15:12:48Z</time>
      </trkpt>
      <trkpt lat="43.42555" lon="6.4918">
        <ele>82</ele>
        <time>2013-03-27T15:12:55Z</time>
      </trkpt>
      <trkpt lat="43.42557" lon="6.49168">
        <ele>82.9</ele>
        <time>2013-03-27T15:13:04Z</time>
      </trkpt>
      <trkpt lat="43.42559" lon="6.49156">
        <ele>83.1</ele>
        <time>2013-03-27T15:13:13Z</time>
      </trkpt>
      <trkpt lat="43.4256" lon="6.49144">
        <ele>82.4</ele>
        <time>2013-03-27T15:13:20Z</time>
      </trkpt>
      <trkpt lat="43.42559" lon="6.49132">
        <ele>83.5</ele>
        <time>2013-03-27T15:13:28Z</time>
      </trkpt>
      <trkpt lat="43.42557" lon="6.49121">
        <ele>83.3</ele>
        <time>2013-03-27T15:13:35Z</time>
      </trkpt>
      <trkpt lat="43.42557" lon="6.4912">
        <ele>83.8</ele>
        <time>2013-03-27T15:13:36Z</time>
      </trkpt>
      <trkpt lat="43.4255" lon="6.49101">
        <ele>84.1</ele>
        <time>2013-03-27T15:13:49Z</time>
      </trkpt>
      <trkpt lat="43.42548" lon="6.4909">
        <ele>84.5</ele>
        <time>2013-03-27T15:13:56Z</time>
      </trkpt>
      <trkpt lat="43.42546" lon="6.49078">
        <ele>85.1</ele>
        <time>2013-03-27T15:14:04Z</time>
      </trkpt>
      <trkpt lat="43.42542" lon="6.49067">
        <ele>85.8</ele>
        <time>2013-03-27T15:14:12Z</time>
      </trkpt>
      <trkpt lat="43.42543" lon="6.49055">
        <ele>85.7</ele>
        <time>2013-03-27T15:14:23Z</time>
      </trkpt>
      <trkpt lat="43.42551" lon="6.49058">
        <ele>86.7</ele>
        <time>2013-03-27T15:14:36Z</time>
      </trkpt>
      <trkpt lat="43.42552" lon="6.49059">
        <ele>86.5</ele>
        <time>2013-03-27T15:14:37Z</time>
      </trkpt>
      <trkpt lat="43.42563" lon="6.49074">
        <ele>86.9</ele>
        <time>2013-03-27T15:14:53Z</time>
      </trkpt>
      <trkpt lat="43.4257" lon="6.4908">
        <ele>86</ele>
        <time>2013-03-27T15:15:00Z</time>
      </trkpt>
      <trkpt lat="43.42576" lon="6.49087">
        <ele>85.2</ele>
        <time>2013-03-27T15:15:07Z</time>
      </trkpt>
      <trkpt lat="43.42584" lon="6.49091">
        <ele>85.5</ele>
        <time>2013-03-27T15:15:14Z</time>
      </trkpt>
      <trkpt lat="43.42591" lon="6.49097">
        <ele>85.4</ele>
        <time>2013-03-27T15:15:21Z</time>
      </trkpt>
      <trkpt lat="43.42598" lon="6.49103">
        <ele>86</ele>
        <time>2013-03-27T15:15:29Z</time>
      </trkpt>
      <trkpt lat="43.42605" lon="6.49111">
        <ele>86.4</ele>
        <time>2013-03-27T15:15:36Z</time>
      </trkpt>
      <trkpt lat="43.42611" lon="6.49118">
        <ele>86.2</ele>
        <time>2013-03-27T15:15:43Z</time>
      </trkpt>
      <trkpt lat="43.42612" lon="6.49119">
        <ele>85.9</ele>
        <time>2013-03-27T15:15:44Z</time>
      </trkpt>
      <trkpt lat="43.42624" lon="6.49131">
        <ele>84.9</ele>
        <time>2013-03-27T15:15:56Z</time>
      </trkpt>
      <trkpt lat="43.42631" lon="6.49137">
        <ele>84.8</ele>
        <time>2013-03-27T15:16:03Z</time>
      </trkpt>
      <trkpt lat="43.4264" lon="6.49141">
        <ele>85.4</ele>
        <time>2013-03-27T15:16:11Z</time>
      </trkpt>
      <trkpt lat="43.42649" lon="6.49141">
        <ele>86.4</ele>
        <time>2013-03-27T15:16:19Z</time>
      </trkpt>
      <trkpt lat="43.42657" lon="6.49137">
        <ele>85.7</ele>
        <time>2013-03-27T15:16:26Z</time>
      </trkpt>
      <trkpt lat="43.42666" lon="6.49134">
        <ele>85.7</ele>
        <time>2013-03-27T15:16:34Z</time>
      </trkpt>
      <trkpt lat="43.42674" lon="6.49135">
        <ele>86</ele>
        <time>2013-03-27T15:16:42Z</time>
      </trkpt>
      <trkpt lat="43.42683" lon="6.49131">
        <ele>85.5</ele>
        <time>2013-03-27T15:16:50Z</time>
      </trkpt>
      <trkpt lat="43.42684" lon="6.4913">
        <ele>85.7</ele>
        <time>2013-03-27T15:16:51Z</time>
      </trkpt>
      <trkpt lat="43.42691" lon="6.49111">
        <ele>85.3</ele>
        <time>2013-03-27T15:17:08Z</time>
      </trkpt>
      <trkpt lat="43.42691" lon="6.491">
        <ele>86.2</ele>
        <time>2013-03-27T15:17:17Z</time>
      </trkpt>
      <trkpt lat="43.42692" lon="6.49089">
        <ele>86.1</ele>
        <time>2013-03-27T15:17:24Z</time>
      </trkpt>
      <trkpt lat="43.42693" lon="6.49077">
        <ele>86.2</ele>
        <time>2013-03-27T15:17:31Z</time>
      </trkpt>
      <trkpt lat="43.42689" lon="6.49066">
        <ele>86.1</ele>
        <time>2013-03-27T15:17:38Z</time>
      </trkpt>
      <trkpt lat="43.42688" lon="6.49056">
        <ele>84.9</ele>
        <time>2013-03-27T15:17:45Z</time>
      </trkpt>
      <trkpt lat="43.42692" lon="6.49046">
        <ele>85.1</ele>
        <time>2013-03-27T15:17:53Z</time>
      </trkpt>
      <trkpt lat="43.42693" lon="6.49045">
        <ele>85.4</ele>
        <time>2013-03-27T15:17:54Z</time>
      </trkpt>
      <trkpt lat="43.42704" lon="6.49059">
        <ele>85.3</ele>
        <time>2013-03-27T15:18:13Z</time>
      </trkpt>
      <trkpt lat="43.42708" lon="6.49069">
        <ele>85.4</ele>
        <time>2013-03-27T15:18:22Z</time>
      </trkpt>
      <trkpt lat="43.42712" lon="6.4908">
        <ele>86.6</ele>
        <time>2013-03-27T15:18:36Z</time>
      </trkpt>
      <trkpt lat="43.42718" lon="6.49088">
        <ele>86.3</ele>
        <time>2013-03-27T15:18:43Z</time>
      </trkpt>
      <trkpt lat="43.42726" lon="6.49094">
        <ele>85.4</ele>
        <time>2013-03-27T15:18:49Z</time>
      </trkpt>
      <trkpt lat="43.42733" lon="6.491">
        <ele>85.2</ele>
        <time>2013-03-27T15:18:55Z</time>
      </trkpt>
      <trkpt lat="43.42734" lon="6.49101">
        <ele>85.1</ele>
        <time>2013-03-27T15:18:56Z</time>
      </trkpt>
      <trkpt lat="43.4274" lon="6.4912">
        <ele>85.4</ele>
        <time>2013-03-27T15:19:09Z</time>
      </trkpt>
      <trkpt lat="43.42744" lon="6.4913">
        <ele>85.8</ele>
        <time>2013-03-27T15:19:17Z</time>
      </trkpt>
      <trkpt lat="43.42751" lon="6.49138">
        <ele>85.8</ele>
        <time>2013-03-27T15:19:25Z</time>
      </trkpt>
      <trkpt lat="43.42759" lon="6.49141">
        <ele>85.7</ele>
        <time>2013-03-27T15:19:35Z</time>
      </trkpt>
      <trkpt lat="43.42768" lon="6.49143">
        <ele>85.4</ele>
        <time>2013-03-27T15:19:42Z</time>
      </trkpt>
      <trkpt lat="43.42776" lon="6.49147">
        <ele>85.6</ele>
        <time>2013-03-27T15:19:49Z</time>
      </trkpt>
      <trkpt lat="43.42784" lon="6.49146">
        <ele>86.5</ele>
        <time>2013-03-27T15:19:58Z</time>
      </trkpt>
      <trkpt lat="43.42785" lon="6.49146">
        <ele>86.5</ele>
        <time>2013-03-27T15:19:59Z</time>
      </trkpt>
      <trkpt lat="43.42802" lon="6.49142">
        <ele>86.4</ele>
        <time>2013-03-27T15:20:13Z</time>
      </trkpt>
      <trkpt lat="43.42811" lon="6.4914">
        <ele>85.8</ele>
        <time>2013-03-27T15:20:21Z</time>
      </trkpt>
      <trkpt lat="43.42818" lon="6.49136">
        <ele>86.8</ele>
        <time>2013-03-27T15:20:27Z</time>
      </trkpt>
      <trkpt lat="43.42821" lon="6.49148">
        <ele>86.2</ele>
        <time>2013-03-27T15:20:46Z</time>
      </trkpt>
      <trkpt lat="43.42816" lon="6.49157">
        <ele>87</ele>
        <time>2013-03-27T15:20:54Z</time>
      </trkpt>
      <trkpt lat="43.42809" lon="6.49164">
        <ele>87.6</ele>
        <time>2013-03-27T15:21:01Z</time>
      </trkpt>
      <trkpt lat="43.42808" lon="6.49165">
        <ele>87.1</ele>
        <time>2013-03-27T15:21:02Z</time>
      </trkpt>
      <trkpt lat="43.42796" lon="6.49179">
        <ele>87.2</ele>
        <time>2013-03-27T15:21:17Z</time>
      </trkpt>
      <trkpt lat="43.42789" lon="6.49187">
        <ele>86.7</ele>
        <time>2013-03-27T15:21:24Z</time>
      </trkpt>
      <trkpt lat="43.42784" lon="6.49196">
        <ele>87</ele>
        <time>2013-03-27T15:21:32Z</time>
      </trkpt>
      <trkpt lat="43.42776" lon="6.49203">
        <ele>88</ele>
        <time>2013-03-27T15:21:40Z</time>
      </trkpt>
      <trkpt lat="43.42769" lon="6.4921">
        <ele>88.4</ele>
        <time>2013-03-27T15:21:48Z</time>
      </trkpt>
      <trkpt lat="43.42762" lon="6.49217">
        <ele>89.3</ele>
        <time>2013-03-27T15:21:55Z</time>
      </trkpt>
      <trkpt lat="43.42756" lon="6.49224">
        <ele>88.6</ele>
        <time>2013-03-27T15:22:02Z</time>
      </trkpt>
      <trkpt lat="43.42755" lon="6.49225">
        <ele>88.7</ele>
        <time>2013-03-27T15:22:03Z</time>
      </trkpt>
      <trkpt lat="43.42743" lon="6.49237">
        <ele>89.6</ele>
        <time>2013-03-27T15:22:17Z</time>
      </trkpt>
      <trkpt lat="43.42735" lon="6.49242">
        <ele>90.3</ele>
        <time>2013-03-27T15:22:24Z</time>
      </trkpt>
      <trkpt lat="43.42728" lon="6.49248">
        <ele>90.4</ele>
        <time>2013-03-27T15:22:31Z</time>
      </trkpt>
      <trkpt lat="43.4272" lon="6.49255">
        <ele>89.8</ele>
        <time>2013-03-27T15:22:38Z</time>
      </trkpt>
      <trkpt lat="43.42715" lon="6.49264">
        <ele>90.2</ele>
        <time>2013-03-27T15:22:45Z</time>
      </trkpt>
      <trkpt lat="43.42713" lon="6.49275">
        <ele>89.6</ele>
        <time>2013-03-27T15:22:51Z</time>
      </trkpt>
      <trkpt lat="43.42709" lon="6.49285">
        <ele>90.8</ele>
        <time>2013-03-27T15:22:58Z</time>
      </trkpt>
      <trkpt lat="43.42704" lon="6.49295">
        <ele>91.1</ele>
        <time>2013-03-27T15:23:05Z</time>
      </trkpt>
      <trkpt lat="43.42704" lon="6.49297">
        <ele>91.2</ele>
        <time>2013-03-27T15:23:06Z</time>
      </trkpt>
      <trkpt lat="43.427" lon="6.49316">
        <ele>91</ele>
        <time>2013-03-27T15:23:19Z</time>
      </trkpt>
      <trkpt lat="43.42704" lon="6.49326">
        <ele>92.5</ele>
        <time>2013-03-27T15:23:25Z</time>
      </trkpt>
      <trkpt lat="43.42712" lon="6.4933">
        <ele>92.2</ele>
        <time>2013-03-27T15:23:32Z</time>
      </trkpt>
      <trkpt lat="43.4272" lon="6.4933">
        <ele>92.4</ele>
        <time>2013-03-27T15:23:39Z</time>
      </trkpt>
      <trkpt lat="43.42729" lon="6.49329">
        <ele>91.9</ele>
        <time>2013-03-27T15:23:47Z</time>
      </trkpt>
      <trkpt lat="43.42738" lon="6.49327">
        <ele>92.8</ele>
        <time>2013-03-27T15:23:55Z</time>
      </trkpt>
      <trkpt lat="43.42746" lon="6.49327">
        <ele>92.7</ele>
        <time>2013-03-27T15:24:02Z</time>
      </trkpt>
      <trkpt lat="43.42754" lon="6.49324">
        <ele>94.5</ele>
        <time>2013-03-27T15:24:09Z</time>
      </trkpt>
      <trkpt lat="43.42755" lon="6.49324">
        <ele>94.5</ele>
        <time>2013-03-27T15:24:10Z</time>
      </trkpt>
      <trkpt lat="43.4277" lon="6.4932">
        <ele>94.3</ele>
        <time>2013-03-27T15:24:24Z</time>
      </trkpt>
      <trkpt lat="43.42778" lon="6.49315">
        <ele>94.6</ele>
        <time>2013-03-27T15:24:43Z</time>
      </trkpt>
      <trkpt lat="43.42785" lon="6.49311">
        <ele>95.4</ele>
        <time>2013-03-27T15:24:50Z</time>
      </trkpt>
      <trkpt lat="43.42794" lon="6.49309">
        <ele>96.2</ele>
        <time>2013-03-27T15:24:58Z</time>
      </trkpt>
      <trkpt lat="43.42802" lon="6.49308">
        <ele>96.5</ele>
        <time>2013-03-27T15:25:05Z</time>
      </trkpt>
      <trkpt lat="43.4281" lon="6.49308">
        <ele>96.9</ele>
        <time>2013-03-27T15:25:12Z</time>
      </trkpt>
      <trkpt lat="43.42811" lon="6.49308">
        <ele>97.2</ele>
        <time>2013-03-27T15:25:13Z</time>
      </trkpt>
      <trkpt lat="43.42826" lon="6.49313">
        <ele>98.3</ele>
        <time>2013-03-27T15:25:26Z</time>
      </trkpt>
      <trkpt lat="43.42834" lon="6.49314">
        <ele>98.3</ele>
        <time>2013-03-27T15:25:33Z</time>
      </trkpt>
      <trkpt lat="43.42843" lon="6.49315">
        <ele>98.8</ele>
        <time>2013-03-27T15:25:41Z</time>
      </trkpt>
      <trkpt lat="43.42852" lon="6.49316">
        <ele>99.7</ele>
        <time>2013-03-27T15:25:48Z</time>
      </trkpt>
      <trkpt lat="43.4286" lon="6.49317">
        <ele>100.4</ele>
        <time>2013-03-27T15:25:55Z</time>
      </trkpt>
      <trkpt lat="43.42868" lon="6.49316">
        <ele>100.5</ele>
        <time>2013-03-27T15:26:02Z</time>
      </trkpt>
      <trkpt lat="43.42876" lon="6.49313">
        <ele>100.9</ele>
        <time>2013-03-27T15:26:09Z</time>
      </trkpt>
      <trkpt lat="43.42885" lon="6.49312">
        <ele>101.2</ele>
        <time>2013-03-27T15:26:17Z</time>
      </trkpt>
      <trkpt lat="43.42886" lon="6.49312">
        <ele>101.2</ele>
        <time>2013-03-27T15:26:18Z</time>
      </trkpt>
      <trkpt lat="43.42899" lon="6.49322">
        <ele>100.8</ele>
        <time>2013-03-27T15:26:31Z</time>
      </trkpt>
      <trkpt lat="43.42905" lon="6.4933">
        <ele>101.4</ele>
        <time>2013-03-27T15:26:39Z</time>
      </trkpt>
      <trkpt lat="43.42912" lon="6.49337">
        <ele>102.8</ele>
        <time>2013-03-27T15:26:47Z</time>
      </trkpt>
      <trkpt lat="43.42918" lon="6.49345">
        <ele>103.1</ele>
        <time>2013-03-27T15:26:55Z</time>
      </trkpt>
      <trkpt lat="43.42924" lon="6.49352">
        <ele>103</ele>
        <time>2013-03-27T15:27:02Z</time>
      </trkpt>
      <trkpt lat="43.42932" lon="6.49357">
        <ele>103.7</ele>
        <time>2013-03-27T15:27:09Z</time>
      </trkpt>
      <trkpt lat="43.42941" lon="6.49358">
        <ele>103.3</ele>
        <time>2013-03-27T15:27:16Z</time>
      </trkpt>
      <trkpt lat="43.42948" lon="6.49358">
        <ele>103.6</ele>
        <time>2013-03-27T15:27:22Z</time>
      </trkpt>
      <trkpt lat="43.4295" lon="6.49358">
        <ele>103.7</ele>
        <time>2013-03-27T15:27:23Z</time>
      </trkpt>
      <trkpt lat="43.42964" lon="6.49352">
        <ele>104</ele>
        <time>2013-03-27T15:27:36Z</time>
      </trkpt>
      <trkpt lat="43.42971" lon="6.49345">
        <ele>103.1</ele>
        <time>2013-03-27T15:27:44Z</time>
      </trkpt>
      <trkpt lat="43.42977" lon="6.49336">
        <ele>104.3</ele>
        <time>2013-03-27T15:27:54Z</time>
      </trkpt>
      <trkpt lat="43.42981" lon="6.49326">
        <ele>103.8</ele>
        <time>2013-03-27T15:28:01Z</time>
      </trkpt>
      <trkpt lat="43.42985" lon="6.49316">
        <ele>103.4</ele>
        <time>2013-03-27T15:28:08Z</time>
      </trkpt>
      <trkpt lat="43.42989" lon="6.49306">
        <ele>104.1</ele>
        <time>2013-03-27T15:28:15Z</time>
      </trkpt>
      <trkpt lat="43.42993" lon="6.49296">
        <ele>103.3</ele>
        <time>2013-03-27T15:28:22Z</time>
      </trkpt>
      <trkpt lat="43.43" lon="6.49289">
        <ele>104</ele>
        <time>2013-03-27T15:28:30Z</time>
      </trkpt>
      <trkpt lat="43.43001" lon="6.49288">
        <ele>103.7</ele>
        <time>2013-03-27T15:28:31Z</time>
      </trkpt>
      <trkpt lat="43.43014" lon="6.49278">
        <ele>104.7</ele>
        <time>2013-03-27T15:28:45Z</time>
      </trkpt>
      <trkpt lat="43.43022" lon="6.49278">
        <ele>104.6</ele>
        <time>2013-03-27T15:28:52Z</time>
      </trkpt>
      <trkpt lat="43.43029" lon="6.49284">
        <ele>104.3</ele>
        <time>2013-03-27T15:29:00Z</time>
      </trkpt>
      <trkpt lat="43.43035" lon="6.49291">
        <ele>103.9</ele>
        <time>2013-03-27T15:29:08Z</time>
      </trkpt>
      <trkpt lat="43.43033" lon="6.49303">
        <ele>103.7</ele>
        <time>2013-03-27T15:29:20Z</time>
      </trkpt>
      <trkpt lat="43.43029" lon="6.49313">
        <ele>103.7</ele>
        <time>2013-03-27T15:29:28Z</time>
      </trkpt>
      <trkpt lat="43.43026" lon="6.49323">
        <ele>104.8</ele>
        <time>2013-03-27T15:29:35Z</time>
      </trkpt>
      <trkpt lat="43.43026" lon="6.49325">
        <ele>104.6</ele>
        <time>2013-03-27T15:29:36Z</time>
      </trkpt>
      <trkpt lat="43.4303" lon="6.49345">
        <ele>103.8</ele>
        <time>2013-03-27T15:29:48Z</time>
      </trkpt>
      <trkpt lat="43.43034" lon="6.49356">
        <ele>103.3</ele>
        <time>2013-03-27T15:29:55Z</time>
      </trkpt>
      <trkpt lat="43.4304" lon="6.49363">
        <ele>103.4</ele>
        <time>2013-03-27T15:30:01Z</time>
      </trkpt>
      <trkpt lat="43.43046" lon="6.49369">
        <ele>103.3</ele>
        <time>2013-03-27T15:30:07Z</time>
      </trkpt>
      <trkpt lat="43.43052" lon="6.49378">
        <ele>103.5</ele>
        <time>2013-03-27T15:30:14Z</time>
      </trkpt>
      <trkpt lat="43.43059" lon="6.49385">
        <ele>104.4</ele>
        <time>2013-03-27T15:30:20Z</time>
      </trkpt>
      <trkpt lat="43.43065" lon="6.49392">
        <ele>103.3</ele>
        <time>2013-03-27T15:30:28Z</time>
      </trkpt>
      <trkpt lat="43.43073" lon="6.49397">
        <ele>104</ele>
        <time>2013-03-27T15:30:34Z</time>
      </trkpt>
      <trkpt lat="43.43081" lon="6.494">
        <ele>103.8</ele>
        <time>2013-03-27T15:30:40Z</time>
      </trkpt>
      <trkpt lat="43.43082" lon="6.49401">
        <ele>103.4</ele>
        <time>2013-03-27T15:30:41Z</time>
      </trkpt>
      <trkpt lat="43.43095" lon="6.49414">
        <ele>103</ele>
        <time>2013-03-27T15:30:54Z</time>
      </trkpt>
      <trkpt lat="43.43101" lon="6.49423">
        <ele>103.4</ele>
        <time>2013-03-27T15:31:02Z</time>
      </trkpt>
      <trkpt lat="43.43106" lon="6.49432">
        <ele>102.6</ele>
        <time>2013-03-27T15:31:09Z</time>
      </trkpt>
      <trkpt lat="43.43113" lon="6.49438">
        <ele>102.7</ele>
        <time>2013-03-27T15:31:15Z</time>
      </trkpt>
      <trkpt lat="43.43122" lon="6.49441">
        <ele>103.3</ele>
        <time>2013-03-27T15:31:22Z</time>
      </trkpt>
      <trkpt lat="43.43129" lon="6.49437">
        <ele>103.6</ele>
        <time>2013-03-27T15:31:28Z</time>
      </trkpt>
      <trkpt lat="43.43137" lon="6.49432">
        <ele>104.8</ele>
        <time>2013-03-27T15:31:36Z</time>
      </trkpt>
      <trkpt lat="43.43145" lon="6.49429">
        <ele>103.8</ele>
        <time>2013-03-27T15:33:37Z</time>
      </trkpt>
      <trkpt lat="43.43146" lon="6.49428">
        <ele>103.7</ele>
        <time>2013-03-27T15:33:38Z</time>
      </trkpt>
      <trkpt lat="43.43161" lon="6.49421">
        <ele>104.6</ele>
        <time>2013-03-27T15:33:53Z</time>
      </trkpt>
      <trkpt lat="43.43169" lon="6.49416">
        <ele>104.7</ele>
        <time>2013-03-27T15:34:00Z</time>
      </trkpt>
      <trkpt lat="43.43176" lon="6.49409">
        <ele>105.6</ele>
        <time>2013-03-27T15:34:07Z</time>
      </trkpt>
      <trkpt lat="43.43183" lon="6.49403">
        <ele>105.4</ele>
        <time>2013-03-27T15:34:15Z</time>
      </trkpt>
      <trkpt lat="43.4319" lon="6.49396">
        <ele>106.4</ele>
        <time>2013-03-27T15:34:23Z</time>
      </trkpt>
      <trkpt lat="43.43196" lon="6.49387">
        <ele>106.9</ele>
        <time>2013-03-27T15:34:33Z</time>
      </trkpt>
      <trkpt lat="43.43201" lon="6.49379">
        <ele>106.2</ele>
        <time>2013-03-27T15:34:40Z</time>
      </trkpt>
      <trkpt lat="43.43202" lon="6.49378">
        <ele>106.3</ele>
        <time>2013-03-27T15:34:41Z</time>
      </trkpt>
      <trkpt lat="43.43215" lon="6.49364">
        <ele>108.3</ele>
        <time>2013-03-27T15:34:58Z</time>
      </trkpt>
      <trkpt lat="43.43222" lon="6.49358">
        <ele>108.6</ele>
        <time>2013-03-27T15:35:06Z</time>
      </trkpt>
      <trkpt lat="43.43228" lon="6.4935">
        <ele>108.7</ele>
        <time>2013-03-27T15:35:13Z</time>
      </trkpt>
      <trkpt lat="43.43234" lon="6.49343">
        <ele>109.7</ele>
        <time>2013-03-27T15:35:21Z</time>
      </trkpt>
      <trkpt lat="43.43241" lon="6.49337">
        <ele>110.3</ele>
        <time>2013-03-27T15:35:28Z</time>
      </trkpt>
      <trkpt lat="43.43246" lon="6.49328">
        <ele>110</ele>
        <time>2013-03-27T15:35:36Z</time>
      </trkpt>
      <trkpt lat="43.43253" lon="6.49321">
        <ele>110.3</ele>
        <time>2013-03-27T15:35:44Z</time>
      </trkpt>
      <trkpt lat="43.43254" lon="6.49321">
        <ele>110.8</ele>
        <time>2013-03-27T15:35:45Z</time>
      </trkpt>
      <trkpt lat="43.43268" lon="6.49328">
        <ele>111.1</ele>
        <time>2013-03-27T15:36:00Z</time>
      </trkpt>
      <trkpt lat="43.43274" lon="6.49336">
        <ele>112.3</ele>
        <time>2013-03-27T15:36:07Z</time>
      </trkpt>
      <trkpt lat="43.43281" lon="6.49342">
        <ele>112.6</ele>
        <time>2013-03-27T15:36:15Z</time>
      </trkpt>
      <trkpt lat="43.43288" lon="6.49346">
        <ele>112.5</ele>
        <time>2013-03-27T15:36:22Z</time>
      </trkpt>
      <trkpt lat="43.43296" lon="6.49352">
        <ele>113.7</ele>
        <time>2013-03-27T15:36:30Z</time>
      </trkpt>
      <trkpt lat="43.43303" lon="6.49357">
        <ele>114.2</ele>
        <time>2013-03-27T15:36:37Z</time>
      </trkpt>
      <trkpt lat="43.4331" lon="6.49363">
        <ele>113.8</ele>
        <time>2013-03-27T15:36:50Z</time>
      </trkpt>
      <trkpt lat="43.43311" lon="6.49363">
        <ele>113.6</ele>
        <time>2013-03-27T15:36:51Z</time>
      </trkpt>
      <trkpt lat="43.43326" lon="6.49374">
        <ele>114.4</ele>
        <time>2013-03-27T15:37:11Z</time>
      </trkpt>
      <trkpt lat="43.43334" lon="6.49378">
        <ele>113.8</ele>
        <time>2013-03-27T15:37:19Z</time>
      </trkpt>
      <trkpt lat="43.43342" lon="6.49383">
        <ele>115</ele>
        <time>2013-03-27T15:37:27Z</time>
      </trkpt>
      <trkpt lat="43.43349" lon="6.4939">
        <ele>115.4</ele>
        <time>2013-03-27T15:37:36Z</time>
      </trkpt>
      <trkpt lat="43.43354" lon="6.49399">
        <ele>115.5</ele>
        <time>2013-03-27T15:37:49Z</time>
      </trkpt>
      <trkpt lat="43.43361" lon="6.49407">
        <ele>114.4</ele>
        <time>2013-03-27T15:38:23Z</time>
      </trkpt>
      <trkpt lat="43.43361" lon="6.49408">
        <ele>114.3</ele>
        <time>2013-03-27T15:38:24Z</time>
      </trkpt>
      <trkpt lat="43.43369" lon="6.49428">
        <ele>115</ele>
        <time>2013-03-27T15:38:52Z</time>
      </trkpt>
      <trkpt lat="43.43372" lon="6.49439">
        <ele>114.4</ele>
        <time>2013-03-27T15:39:02Z</time>
      </trkpt>
      <trkpt lat="43.43374" lon="6.4945">
        <ele>113.9</ele>
        <time>2013-03-27T15:39:09Z</time>
      </trkpt>
      <trkpt lat="43.43375" lon="6.49461">
        <ele>115.2</ele>
        <time>2013-03-27T15:39:16Z</time>
      </trkpt>
      <trkpt lat="43.43376" lon="6.49474">
        <ele>115.7</ele>
        <time>2013-03-27T15:39:23Z</time>
      </trkpt>
      <trkpt lat="43.43375" lon="6.49485">
        <ele>115.9</ele>
        <time>2013-03-27T15:39:30Z</time>
      </trkpt>
      <trkpt lat="43.43375" lon="6.49487">
        <ele>116.3</ele>
        <time>2013-03-27T15:39:31Z</time>
      </trkpt>
      <trkpt lat="43.43376" lon="6.49508">
        <ele>116.1</ele>
        <time>2013-03-27T15:39:45Z</time>
      </trkpt>
      <trkpt lat="43.43376" lon="6.49519">
        <ele>115.5</ele>
        <time>2013-03-27T15:39:52Z</time>
      </trkpt>
      <trkpt lat="43.43376" lon="6.49531">
        <ele>115.4</ele>
        <time>2013-03-27T15:39:59Z</time>
      </trkpt>
      <trkpt lat="43.43376" lon="6.49543">
        <ele>116.1</ele>
        <time>2013-03-27T15:40:07Z</time>
      </trkpt>
      <trkpt lat="43.43375" lon="6.49555">
        <ele>116</ele>
        <time>2013-03-27T15:40:15Z</time>
      </trkpt>
      <trkpt lat="43.43374" lon="6.49567">
        <ele>116.1</ele>
        <time>2013-03-27T15:40:22Z</time>
      </trkpt>
      <trkpt lat="43.43374" lon="6.49579">
        <ele>115.8</ele>
        <time>2013-03-27T15:40:29Z</time>
      </trkpt>
      <trkpt lat="43.43373" lon="6.49591">
        <ele>115.1</ele>
        <time>2013-03-27T15:40:37Z</time>
      </trkpt>
      <trkpt lat="43.43373" lon="6.49593">
        <ele>115.6</ele>
        <time>2013-03-27T15:40:38Z</time>
      </trkpt>
      <trkpt lat="43.43375" lon="6.49614">
        <ele>116</ele>
        <time>2013-03-27T15:40:52Z</time>
      </trkpt>
      <trkpt lat="43.43377" lon="6.49625">
        <ele>116.2</ele>
        <time>2013-03-27T15:40:59Z</time>
      </trkpt>
      <trkpt lat="43.43379" lon="6.49637">
        <ele>115.6</ele>
        <time>2013-03-27T15:41:06Z</time>
      </trkpt>
      <trkpt lat="43.43377" lon="6.49649">
        <ele>115.9</ele>
        <time>2013-03-27T15:41:14Z</time>
      </trkpt>
      <trkpt lat="43.4337" lon="6.49655">
        <ele>115.4</ele>
        <time>2013-03-27T15:41:21Z</time>
      </trkpt>
      <trkpt lat="43.43365" lon="6.49664">
        <ele>116.4</ele>
        <time>2013-03-27T15:41:28Z</time>
      </trkpt>
      <trkpt lat="43.43358" lon="6.49672">
        <ele>116.1</ele>
        <time>2013-03-27T15:41:36Z</time>
      </trkpt>
      <trkpt lat="43.43351" lon="6.49679">
        <ele>116.2</ele>
        <time>2013-03-27T15:41:43Z</time>
      </trkpt>
      <trkpt lat="43.4335" lon="6.4968">
        <ele>116.3</ele>
        <time>2013-03-27T15:41:44Z</time>
      </trkpt>
      <trkpt lat="43.43341" lon="6.49695">
        <ele>117</ele>
        <time>2013-03-27T15:41:57Z</time>
      </trkpt>
      <trkpt lat="43.43334" lon="6.49702">
        <ele>116.9</ele>
        <time>2013-03-27T15:42:04Z</time>
      </trkpt>
      <trkpt lat="43.43327" lon="6.49706">
        <ele>117.4</ele>
        <time>2013-03-27T15:42:10Z</time>
      </trkpt>
      <trkpt lat="43.43319" lon="6.49712">
        <ele>117.9</ele>
        <time>2013-03-27T15:42:17Z</time>
      </trkpt>
      <trkpt lat="43.43311" lon="6.49716">
        <ele>117.2</ele>
        <time>2013-03-27T15:42:24Z</time>
      </trkpt>
      <trkpt lat="43.43304" lon="6.49721">
        <ele>117</ele>
        <time>2013-03-27T15:42:31Z</time>
      </trkpt>
      <trkpt lat="43.43297" lon="6.49728">
        <ele>117.2</ele>
        <time>2013-03-27T15:42:38Z</time>
      </trkpt>
      <trkpt lat="43.43292" lon="6.49738">
        <ele>117.8</ele>
        <time>2013-03-27T15:42:45Z</time>
      </trkpt>
      <trkpt lat="43.43292" lon="6.49739">
        <ele>118</ele>
        <time>2013-03-27T15:42:46Z</time>
      </trkpt>
      <trkpt lat="43.43285" lon="6.49759">
        <ele>117.6</ele>
        <time>2013-03-27T15:42:59Z</time>
      </trkpt>
      <trkpt lat="43.43282" lon="6.49769">
        <ele>118.9</ele>
        <time>2013-03-27T15:43:06Z</time>
      </trkpt>
      <trkpt lat="43.43279" lon="6.4978">
        <ele>118.1</ele>
        <time>2013-03-27T15:43:13Z</time>
      </trkpt>
      <trkpt lat="43.43279" lon="6.49792">
        <ele>119.5</ele>
        <time>2013-03-27T15:43:19Z</time>
      </trkpt>
      <trkpt lat="43.43277" lon="6.49802">
        <ele>119</ele>
        <time>2013-03-27T15:43:25Z</time>
      </trkpt>
      <trkpt lat="43.43276" lon="6.49813">
        <ele>119.4</ele>
        <time>2013-03-27T15:43:31Z</time>
      </trkpt>
      <trkpt lat="43.43274" lon="6.49824">
        <ele>119.7</ele>
        <time>2013-03-27T15:43:38Z</time>
      </trkpt>
      <trkpt lat="43.43273" lon="6.49835">
        <ele>120.1</ele>
        <time>2013-03-27T15:43:45Z</time>
      </trkpt>
      <trkpt lat="43.43271" lon="6.49847">
        <ele>119.5</ele>
        <time>2013-03-27T15:43:52Z</time>
      </trkpt>
      <trkpt lat="43.43271" lon="6.49849">
        <ele>119.4</ele>
        <time>2013-03-27T15:43:53Z</time>
      </trkpt>
      <trkpt lat="43.43266" lon="6.49869">
        <ele>119.7</ele>
        <time>2013-03-27T15:44:06Z</time>
      </trkpt>
      <trkpt lat="43.43264" lon="6.49879">
        <ele>119.1</ele>
        <time>2013-03-27T15:44:12Z</time>
      </trkpt>
      <trkpt lat="43.43262" lon="6.4989">
        <ele>118.5</ele>
        <time>2013-03-27T15:44:19Z</time>
      </trkpt>
      <trkpt lat="43.43258" lon="6.499">
        <ele>118.1</ele>
        <time>2013-03-27T15:44:26Z</time>
      </trkpt>
      <trkpt lat="43.43252" lon="6.49909">
        <ele>118.4</ele>
        <time>2013-03-27T15:46:08Z</time>
      </trkpt>
      <trkpt lat="43.43251" lon="6.49909">
        <ele>118.5</ele>
        <time>2013-03-27T15:46:09Z</time>
      </trkpt>
      <trkpt lat="43.4325" lon="6.49931">
        <ele>117.7</ele>
        <time>2013-03-27T15:46:41Z</time>
      </trkpt>
      <trkpt lat="43.43255" lon="6.49941">
        <ele>116.5</ele>
        <time>2013-03-27T15:46:49Z</time>
      </trkpt>
      <trkpt lat="43.43261" lon="6.49948">
        <ele>116.1</ele>
        <time>2013-03-27T15:46:56Z</time>
      </trkpt>
      <trkpt lat="43.43269" lon="6.49953">
        <ele>115.5</ele>
        <time>2013-03-27T15:47:04Z</time>
      </trkpt>
      <trkpt lat="43.43278" lon="6.49954">
        <ele>115</ele>
        <time>2013-03-27T15:47:12Z</time>
      </trkpt>
      <trkpt lat="43.43279" lon="6.49954">
        <ele>115.1</ele>
        <time>2013-03-27T15:47:13Z</time>
      </trkpt>
      <trkpt lat="43.43295" lon="6.49956">
        <ele>114.5</ele>
        <time>2013-03-27T15:47:27Z</time>
      </trkpt>
      <trkpt lat="43.43303" lon="6.49955">
        <ele>113.3</ele>
        <time>2013-03-27T15:47:34Z</time>
      </trkpt>
      <trkpt lat="43.43312" lon="6.49954">
        <ele>113.6</ele>
        <time>2013-03-27T15:47:41Z</time>
      </trkpt>
      <trkpt lat="43.43321" lon="6.49954">
        <ele>112.6</ele>
        <time>2013-03-27T15:47:49Z</time>
      </trkpt>
      <trkpt lat="43.43328" lon="6.49952">
        <ele>111.9</ele>
        <time>2013-03-27T15:47:56Z</time>
      </trkpt>
      <trkpt lat="43.43337" lon="6.49952">
        <ele>110.4</ele>
        <time>2013-03-27T15:48:03Z</time>
      </trkpt>
      <trkpt lat="43.43346" lon="6.4995">
        <ele>111.4</ele>
        <time>2013-03-27T15:48:12Z</time>
      </trkpt>
      <trkpt lat="43.43354" lon="6.49949">
        <ele>109.6</ele>
        <time>2013-03-27T15:48:19Z</time>
      </trkpt>
      <trkpt lat="43.43355" lon="6.49948">
        <ele>109.8</ele>
        <time>2013-03-27T15:48:20Z</time>
      </trkpt>
      <trkpt lat="43.43371" lon="6.4995">
        <ele>108.2</ele>
        <time>2013-03-27T15:48:33Z</time>
      </trkpt>
      <trkpt lat="43.43379" lon="6.49951">
        <ele>109</ele>
        <time>2013-03-27T15:48:40Z</time>
      </trkpt>
      <trkpt lat="43.43387" lon="6.49952">
        <ele>107.8</ele>
        <time>2013-03-27T15:48:46Z</time>
      </trkpt>
      <trkpt lat="43.43395" lon="6.49955">
        <ele>106.6</ele>
        <time>2013-03-27T15:48:53Z</time>
      </trkpt>
      <trkpt lat="43.43403" lon="6.49957">
        <ele>105.9</ele>
        <time>2013-03-27T15:49:00Z</time>
      </trkpt>
      <trkpt lat="43.43411" lon="6.49957">
        <ele>105</ele>
        <time>2013-03-27T15:49:07Z</time>
      </trkpt>
      <trkpt lat="43.43419" lon="6.49956">
        <ele>105</ele>
        <time>2013-03-27T15:49:13Z</time>
      </trkpt>
      <trkpt lat="43.43427" lon="6.49957">
        <ele>104.3</ele>
        <time>2013-03-27T15:49:20Z</time>
      </trkpt>
      <trkpt lat="43.43435" lon="6.49961">
        <ele>104.9</ele>
        <time>2013-03-27T15:49:27Z</time>
      </trkpt>
      <trkpt lat="43.43436" lon="6.49962">
        <ele>104.9</ele>
        <time>2013-03-27T15:49:28Z</time>
      </trkpt>
      <trkpt lat="43.43449" lon="6.49973">
        <ele>102.3</ele>
        <time>2013-03-27T15:49:41Z</time>
      </trkpt>
      <trkpt lat="43.43455" lon="6.49981">
        <ele>102.3</ele>
        <time>2013-03-27T15:49:48Z</time>
      </trkpt>
      <trkpt lat="43.43463" lon="6.49985">
        <ele>101.6</ele>
        <time>2013-03-27T15:49:55Z</time>
      </trkpt>
      <trkpt lat="43.43471" lon="6.49988">
        <ele>100.9</ele>
        <time>2013-03-27T15:50:02Z</time>
      </trkpt>
      <trkpt lat="43.43477" lon="6.49996">
        <ele>101</ele>
        <time>2013-03-27T15:50:09Z</time>
      </trkpt>
      <trkpt lat="43.43482" lon="6.50006">
        <ele>100.1</ele>
        <time>2013-03-27T15:50:17Z</time>
      </trkpt>
      <trkpt lat="43.43486" lon="6.50016">
        <ele>98.8</ele>
        <time>2013-03-27T15:50:25Z</time>
      </trkpt>
      <trkpt lat="43.43491" lon="6.50024">
        <ele>97.8</ele>
        <time>2013-03-27T15:50:32Z</time>
      </trkpt>
      <trkpt lat="43.43492" lon="6.50025">
        <ele>97.2</ele>
        <time>2013-03-27T15:50:33Z</time>
      </trkpt>
      <trkpt lat="43.43507" lon="6.50033">
        <ele>95.9</ele>
        <time>2013-03-27T15:50:46Z</time>
      </trkpt>
      <trkpt lat="43.43514" lon="6.5004">
        <ele>96.6</ele>
        <time>2013-03-27T15:50:53Z</time>
      </trkpt>
      <trkpt lat="43.43518" lon="6.5005">
        <ele>95.4</ele>
        <time>2013-03-27T15:51:00Z</time>
      </trkpt>
      <trkpt lat="43.4352" lon="6.50062">
        <ele>95.6</ele>
        <time>2013-03-27T15:51:08Z</time>
      </trkpt>
      <trkpt lat="43.4352" lon="6.50074">
        <ele>94</ele>
        <time>2013-03-27T15:51:17Z</time>
      </trkpt>
      <trkpt lat="43.43522" lon="6.50086">
        <ele>94.1</ele>
        <time>2013-03-27T15:51:25Z</time>
      </trkpt>
      <trkpt lat="43.43526" lon="6.50096">
        <ele>92.9</ele>
        <time>2013-03-27T15:51:32Z</time>
      </trkpt>
      <trkpt lat="43.43532" lon="6.50104">
        <ele>93</ele>
        <time>2013-03-27T15:51:40Z</time>
      </trkpt>
      <trkpt lat="43.43533" lon="6.50106">
        <ele>92.5</ele>
        <time>2013-03-27T15:51:41Z</time>
      </trkpt>
      <trkpt lat="43.43544" lon="6.50121">
        <ele>91.6</ele>
        <time>2013-03-27T15:51:53Z</time>
      </trkpt>
      <trkpt lat="43.4355" lon="6.50129">
        <ele>91</ele>
        <time>2013-03-27T15:52:00Z</time>
      </trkpt>
      <trkpt lat="43.43555" lon="6.50139">
        <ele>90.1</ele>
        <time>2013-03-27T15:52:08Z</time>
      </trkpt>
      <trkpt lat="43.43558" lon="6.50149">
        <ele>89.8</ele>
        <time>2013-03-27T15:52:16Z</time>
      </trkpt>
      <trkpt lat="43.43562" lon="6.5016">
        <ele>89.3</ele>
        <time>2013-03-27T15:52:24Z</time>
      </trkpt>
      <trkpt lat="43.43564" lon="6.50171">
        <ele>88.7</ele>
        <time>2013-03-27T15:52:33Z</time>
      </trkpt>
      <trkpt lat="43.43565" lon="6.50183">
        <ele>88</ele>
        <time>2013-03-27T15:52:41Z</time>
      </trkpt>
      <trkpt lat="43.43566" lon="6.50184">
        <ele>87.6</ele>
        <time>2013-03-27T15:52:42Z</time>
      </trkpt>
      <trkpt lat="43.43567" lon="6.50205">
        <ele>86.6</ele>
        <time>2013-03-27T15:52:55Z</time>
      </trkpt>
      <trkpt lat="43.43567" lon="6.50216">
        <ele>86.1</ele>
        <time>2013-03-27T15:53:02Z</time>
      </trkpt>
      <trkpt lat="43.43567" lon="6.50228">
        <ele>85.9</ele>
        <time>2013-03-27T15:53:09Z</time>
      </trkpt>
      <trkpt lat="43.43571" lon="6.50239">
        <ele>84.8</ele>
        <time>2013-03-27T15:53:16Z</time>
      </trkpt>
      <trkpt lat="43.43576" lon="6.50248">
        <ele>84.6</ele>
        <time>2013-03-27T15:53:23Z</time>
      </trkpt>
      <trkpt lat="43.43582" lon="6.50257">
        <ele>85.2</ele>
        <time>2013-03-27T15:53:30Z</time>
      </trkpt>
      <trkpt lat="43.43589" lon="6.50265">
        <ele>84</ele>
        <time>2013-03-27T15:53:37Z</time>
      </trkpt>
      <trkpt lat="43.43595" lon="6.50273">
        <ele>83.3</ele>
        <time>2013-03-27T15:53:44Z</time>
      </trkpt>
      <trkpt lat="43.43596" lon="6.50275">
        <ele>83.7</ele>
        <time>2013-03-27T15:53:45Z</time>
      </trkpt>
      <trkpt lat="43.43605" lon="6.50292">
        <ele>82</ele>
        <time>2013-03-27T15:53:58Z</time>
      </trkpt>
      <trkpt lat="43.43607" lon="6.50303">
        <ele>80.7</ele>
        <time>2013-03-27T15:54:05Z</time>
      </trkpt>
      <trkpt lat="43.43608" lon="6.50314">
        <ele>81.7</ele>
        <time>2013-03-27T15:54:12Z</time>
      </trkpt>
      <trkpt lat="43.43611" lon="6.50326">
        <ele>79.8</ele>
        <time>2013-03-27T15:54:20Z</time>
      </trkpt>
      <trkpt lat="43.43615" lon="6.50337">
        <ele>79.5</ele>
        <time>2013-03-27T15:54:28Z</time>
      </trkpt>
      <trkpt lat="43.43615" lon="6.50349">
        <ele>78.5</ele>
        <time>2013-03-27T15:54:36Z</time>
      </trkpt>
      <trkpt lat="43.43614" lon="6.5036">
        <ele>77</ele>
        <time>2013-03-27T15:54:43Z</time>
      </trkpt>
      <trkpt lat="43.43611" lon="6.50371">
        <ele>76.5</ele>
        <time>2013-03-27T15:54:51Z</time>
      </trkpt>
      <trkpt lat="43.43611" lon="6.50373">
        <ele>76.5</ele>
        <time>2013-03-27T15:54:52Z</time>
      </trkpt>
      <trkpt lat="43.43618" lon="6.50393">
        <ele>76.2</ele>
        <time>2013-03-27T15:55:04Z</time>
      </trkpt>
      <trkpt lat="43.43622" lon="6.50403">
        <ele>74.5</ele>
        <time>2013-03-27T15:55:11Z</time>
      </trkpt>
      <trkpt lat="43.43626" lon="6.50412">
        <ele>73.8</ele>
        <time>2013-03-27T15:55:18Z</time>
      </trkpt>
      <trkpt lat="43.43627" lon="6.50425">
        <ele>74.5</ele>
        <time>2013-03-27T15:55:26Z</time>
      </trkpt>
      <trkpt lat="43.4363" lon="6.50436">
        <ele>72.7</ele>
        <time>2013-03-27T15:55:33Z</time>
      </trkpt>
      <trkpt lat="43.43635" lon="6.50445">
        <ele>73.1</ele>
        <time>2013-03-27T15:55:39Z</time>
      </trkpt>
      <trkpt lat="43.4364" lon="6.50453">
        <ele>70.7</ele>
        <time>2013-03-27T15:55:45Z</time>
      </trkpt>
      <trkpt lat="43.43644" lon="6.50463">
        <ele>71.6</ele>
        <time>2013-03-27T15:55:52Z</time>
      </trkpt>
      <trkpt lat="43.43645" lon="6.50464">
        <ele>72.1</ele>
        <time>2013-03-27T15:55:53Z</time>
      </trkpt>
      <trkpt lat="43.43649" lon="6.50485">
        <ele>70.2</ele>
        <time>2013-03-27T15:56:06Z</time>
      </trkpt>
      <trkpt lat="43.43652" lon="6.50497">
        <ele>68.6</ele>
        <time>2013-03-27T15:56:13Z</time>
      </trkpt>
      <trkpt lat="43.43656" lon="6.50508">
        <ele>68.8</ele>
        <time>2013-03-27T15:56:20Z</time>
      </trkpt>
      <trkpt lat="43.43659" lon="6.50518">
        <ele>68.7</ele>
        <time>2013-03-27T15:56:26Z</time>
      </trkpt>
      <trkpt lat="43.43659" lon="6.5053">
        <ele>67.1</ele>
        <time>2013-03-27T15:56:34Z</time>
      </trkpt>
      <trkpt lat="43.43657" lon="6.50541">
        <ele>67</ele>
        <time>2013-03-27T15:56:40Z</time>
      </trkpt>
      <trkpt lat="43.43656" lon="6.50552">
        <ele>66.5</ele>
        <time>2013-03-27T15:56:47Z</time>
      </trkpt>
      <trkpt lat="43.43654" lon="6.50563">
        <ele>65</ele>
        <time>2013-03-27T15:56:54Z</time>
      </trkpt>
      <trkpt lat="43.43654" lon="6.50565">
        <ele>64.9</ele>
        <time>2013-03-27T15:56:55Z</time>
      </trkpt>
      <trkpt lat="43.43652" lon="6.50586">
        <ele>65.2</ele>
        <time>2013-03-27T15:57:07Z</time>
      </trkpt>
      <trkpt lat="43.4365" lon="6.50598">
        <ele>64.6</ele>
        <time>2013-03-27T15:57:14Z</time>
      </trkpt>
      <trkpt lat="43.43649" lon="6.50609">
        <ele>63.6</ele>
        <time>2013-03-27T15:57:20Z</time>
      </trkpt>
      <trkpt lat="43.43647" lon="6.5062">
        <ele>63.6</ele>
        <time>2013-03-27T15:57:27Z</time>
      </trkpt>
      <trkpt lat="43.43646" lon="6.50631">
        <ele>63.3</ele>
        <time>2013-03-27T15:57:33Z</time>
      </trkpt>
      <trkpt lat="43.43643" lon="6.50643">
        <ele>63.2</ele>
        <time>2013-03-27T15:57:40Z</time>
      </trkpt>
      <trkpt lat="43.43641" lon="6.50655">
        <ele>62.5</ele>
        <time>2013-03-27T15:57:47Z</time>
      </trkpt>
      <trkpt lat="43.43639" lon="6.50666">
        <ele>62.7</ele>
        <time>2013-03-27T15:57:54Z</time>
      </trkpt>
      <trkpt lat="43.43634" lon="6.50675">
        <ele>61.6</ele>
        <time>2013-03-27T15:58:01Z</time>
      </trkpt>
      <trkpt lat="43.43633" lon="6.50676">
        <ele>61.2</ele>
        <time>2013-03-27T15:58:02Z</time>
      </trkpt>
      <trkpt lat="43.43621" lon="6.50689">
        <ele>60</ele>
        <time>2013-03-27T15:58:16Z</time>
      </trkpt>
      <trkpt lat="43.43616" lon="6.50698">
        <ele>58.3</ele>
        <time>2013-03-27T15:58:22Z</time>
      </trkpt>
      <trkpt lat="43.43616" lon="6.5071">
        <ele>57.5</ele>
        <time>2013-03-27T15:58:30Z</time>
      </trkpt>
      <trkpt lat="43.43618" lon="6.5072">
        <ele>57.7</ele>
        <time>2013-03-27T15:58:36Z</time>
      </trkpt>
      <trkpt lat="43.43622" lon="6.50732">
        <ele>56.8</ele>
        <time>2013-03-27T15:58:43Z</time>
      </trkpt>
      <trkpt lat="43.43626" lon="6.50741">
        <ele>56.4</ele>
        <time>2013-03-27T15:58:49Z</time>
      </trkpt>
      <trkpt lat="43.4363" lon="6.50751">
        <ele>56.3</ele>
        <time>2013-03-27T15:58:55Z</time>
      </trkpt>
      <trkpt lat="43.43634" lon="6.50762">
        <ele>55.5</ele>
        <time>2013-03-27T15:59:02Z</time>
      </trkpt>
      <trkpt lat="43.43634" lon="6.50774">
        <ele>53.6</ele>
        <time>2013-03-27T15:59:10Z</time>
      </trkpt>
      <trkpt lat="43.43633" lon="6.50776">
        <ele>53.4</ele>
        <time>2013-03-27T15:59:11Z</time>
      </trkpt>
      <trkpt lat="43.43628" lon="6.50796">
        <ele>52.2</ele>
        <time>2013-03-27T15:59:24Z</time>
      </trkpt>
      <trkpt lat="43.43623" lon="6.50805">
        <ele>52</ele>
        <time>2013-03-27T15:59:31Z</time>
      </trkpt>
      <trkpt lat="43.43619" lon="6.50816">
        <ele>51.5</ele>
        <time>2013-03-27T15:59:39Z</time>
      </trkpt>
      <trkpt lat="43.43623" lon="6.50825">
        <ele>49.1</ele>
        <time>2013-03-27T15:59:46Z</time>
      </trkpt>
      <trkpt lat="43.43628" lon="6.50833">
        <ele>49.2</ele>
        <time>2013-03-27T15:59:52Z</time>
      </trkpt>
      <trkpt lat="43.43632" lon="6.50843">
        <ele>49.2</ele>
        <time>2013-03-27T15:59:58Z</time>
      </trkpt>
      <trkpt lat="43.43635" lon="6.50854">
        <ele>47.3</ele>
        <time>2013-03-27T16:00:05Z</time>
      </trkpt>
      <trkpt lat="43.43638" lon="6.50864">
        <ele>47.1</ele>
        <time>2013-03-27T16:00:11Z</time>
      </trkpt>
      <trkpt lat="43.43638" lon="6.50866">
        <ele>46.6</ele>
        <time>2013-03-27T16:00:12Z</time>
      </trkpt>
      <trkpt lat="43.43636" lon="6.50887">
        <ele>45.4</ele>
        <time>2013-03-27T16:00:26Z</time>
      </trkpt>
      <trkpt lat="43.43633" lon="6.50898">
        <ele>44</ele>
        <time>2013-03-27T16:00:34Z</time>
      </trkpt>
      <trkpt lat="43.43632" lon="6.50909">
        <ele>42.9</ele>
        <time>2013-03-27T16:00:41Z</time>
      </trkpt>
      <trkpt lat="43.43634" lon="6.50921">
        <ele>42.4</ele>
        <time>2013-03-27T16:00:48Z</time>
      </trkpt>
      <trkpt lat="43.43637" lon="6.5093">
        <ele>42.2</ele>
        <time>2013-03-27T16:00:53Z</time>
      </trkpt>
      <trkpt lat="43.43641" lon="6.50941">
        <ele>41.1</ele>
        <time>2013-03-27T16:00:59Z</time>
      </trkpt>
      <trkpt lat="43.43643" lon="6.50952">
        <ele>42.1</ele>
        <time>2013-03-27T16:01:06Z</time>
      </trkpt>
      <trkpt lat="43.43644" lon="6.50964">
        <ele>40.8</ele>
        <time>2013-03-27T16:01:14Z</time>
      </trkpt>
      <trkpt lat="43.43644" lon="6.50965">
        <ele>40.7</ele>
        <time>2013-03-27T16:01:15Z</time>
      </trkpt>
      <trkpt lat="43.43648" lon="6.50987">
        <ele>39.5</ele>
        <time>2013-03-27T16:01:28Z</time>
      </trkpt>
      <trkpt lat="43.43652" lon="6.50996">
        <ele>38.7</ele>
        <time>2013-03-27T16:01:34Z</time>
      </trkpt>
      <trkpt lat="43.43656" lon="6.51006">
        <ele>37.4</ele>
        <time>2013-03-27T16:01:41Z</time>
      </trkpt>
      <trkpt lat="43.43659" lon="6.51017">
        <ele>37.6</ele>
        <time>2013-03-27T16:01:48Z</time>
      </trkpt>
      <trkpt lat="43.43658" lon="6.51028">
        <ele>37.8</ele>
        <time>2013-03-27T16:01:55Z</time>
      </trkpt>
      <trkpt lat="43.4365" lon="6.51034">
        <ele>36.2</ele>
        <time>2013-03-27T16:02:05Z</time>
      </trkpt>
      <trkpt lat="43.43642" lon="6.51034">
        <ele>34.2</ele>
        <time>2013-03-27T16:02:12Z</time>
      </trkpt>
      <trkpt lat="43.43634" lon="6.51032">
        <ele>34.2</ele>
        <time>2013-03-27T16:02:19Z</time>
      </trkpt>
      <trkpt lat="43.43633" lon="6.51032">
        <ele>33.8</ele>
        <time>2013-03-27T16:02:20Z</time>
      </trkpt>
      <trkpt lat="43.43619" lon="6.51023">
        <ele>32.9</ele>
        <time>2013-03-27T16:02:33Z</time>
      </trkpt>
      <trkpt lat="43.43611" lon="6.51018">
        <ele>32.3</ele>
        <time>2013-03-27T16:02:40Z</time>
      </trkpt>
      <trkpt lat="43.43603" lon="6.51014">
        <ele>31.4</ele>
        <time>2013-03-27T16:02:49Z</time>
      </trkpt>
      <trkpt lat="43.43594" lon="6.51013">
        <ele>29.8</ele>
        <time>2013-03-27T16:02:57Z</time>
      </trkpt>
      <trkpt lat="43.43586" lon="6.51014">
        <ele>28.9</ele>
        <time>2013-03-27T16:03:04Z</time>
      </trkpt>
      <trkpt lat="43.43579" lon="6.51016">
        <ele>28.4</ele>
        <time>2013-03-27T16:03:09Z</time>
      </trkpt>
      <trkpt lat="43.43571" lon="6.5102">
        <ele>27</ele>
        <time>2013-03-27T16:03:16Z</time>
      </trkpt>
      <trkpt lat="43.43563" lon="6.51024">
        <ele>26.6</ele>
        <time>2013-03-27T16:03:25Z</time>
      </trkpt>
      <trkpt lat="43.43562" lon="6.51025">
        <ele>26.1</ele>
        <time>2013-03-27T16:03:26Z</time>
      </trkpt>
      <trkpt lat="43.43548" lon="6.51037">
        <ele>25.4</ele>
        <time>2013-03-27T16:03:42Z</time>
      </trkpt>
      <trkpt lat="43.43541" lon="6.51043">
        <ele>25.1</ele>
        <time>2013-03-27T16:03:50Z</time>
      </trkpt>
      <trkpt lat="43.43534" lon="6.51051">
        <ele>23.4</ele>
        <time>2013-03-27T16:03:59Z</time>
      </trkpt>
      <trkpt lat="43.43527" lon="6.51058">
        <ele>22.5</ele>
        <time>2013-03-27T16:04:07Z</time>
      </trkpt>
      <trkpt lat="43.43522" lon="6.51067">
        <ele>22.6</ele>
        <time>2013-03-27T16:04:16Z</time>
      </trkpt>
      <trkpt lat="43.43527" lon="6.51077">
        <ele>21.5</ele>
        <time>2013-03-27T16:05:21Z</time>
      </trkpt>
      <trkpt lat="43.43528" lon="6.51077">
        <ele>21.5</ele>
        <time>2013-03-27T16:05:22Z</time>
      </trkpt>
    </trkseg>
  </trk>
</gpx>